<?xml version="1.0" encoding="UTF-8" standalone="no" ?>
<gpx xmlns="http://www.topografix.com/GPX/1/1" xmlns:xsi="http://www.w3.org/2001/XMLSchema-instance" xsi:schemaLocation="http://www.topografix.com/GPX/1/1 http://www.topografix.com/GPX/1/1/gpx.xsd" version="1.1" creator="VisuGPX - https://www.visugpx.com">
  <metadata>
    <name>Course lundi 24</name>
    <desc><![CDATA[Deuxième course 60 min brulure de calories ]]></desc>
  </metadata>
  <trk>
    <name><![CDATA[24-04 .gpx]]></name>
    <trkseg>
      <trkpt lat="49.17761" lon="-0.35981">
        <ele>6</ele>
        <time>2017-04-24T16:47:38Z</time>
      </trkpt>
      <trkpt lat="49.17752" lon="-0.35987">
        <ele>26.250992</ele>
        <time>2017-04-24T16:47:45Z</time>
      </trkpt>
      <trkpt lat="49.17751" lon="-0.35988">
        <ele>26.031683</ele>
        <time>2017-04-24T16:47:46Z</time>
      </trkpt>
      <trkpt lat="49.17746" lon="-0.35994">
        <ele>25.08839</ele>
        <time>2017-04-24T16:47:59Z</time>
      </trkpt>
      <trkpt lat="49.17736" lon="-0.35988">
        <ele>24.47274</ele>
        <time>2017-04-24T16:48:07Z</time>
      </trkpt>
      <trkpt lat="49.17731" lon="-0.35974">
        <ele>24.763391</ele>
        <time>2017-04-24T16:48:12Z</time>
      </trkpt>
      <trkpt lat="49.17724" lon="-0.35961">
        <ele>24.818878</ele>
        <time>2017-04-24T16:48:16Z</time>
      </trkpt>
      <trkpt lat="49.17717" lon="-0.35949">
        <ele>24.583717</ele>
        <time>2017-04-24T16:48:20Z</time>
      </trkpt>
      <trkpt lat="49.1771" lon="-0.35936">
        <ele>24.829449</ele>
        <time>2017-04-24T16:48:24Z</time>
      </trkpt>
      <trkpt lat="49.17701" lon="-0.35923">
        <ele>24.525587</ele>
        <time>2017-04-24T16:48:27Z</time>
      </trkpt>
      <trkpt lat="49.17695" lon="-0.3591">
        <ele>24.462172</ele>
        <time>2017-04-24T16:48:31Z</time>
      </trkpt>
      <trkpt lat="49.17687" lon="-0.35901">
        <ele>24.673553</ele>
        <time>2017-04-24T16:48:35Z</time>
      </trkpt>
      <trkpt lat="49.17682" lon="-0.35888">
        <ele>24.446318</ele>
        <time>2017-04-24T16:48:39Z</time>
      </trkpt>
      <trkpt lat="49.17674" lon="-0.35875">
        <ele>25.001196</ele>
        <time>2017-04-24T16:48:43Z</time>
      </trkpt>
      <trkpt lat="49.17666" lon="-0.35864">
        <ele>25.022333</ele>
        <time>2017-04-24T16:48:47Z</time>
      </trkpt>
      <trkpt lat="49.17659" lon="-0.35855">
        <ele>25.12274</ele>
        <time>2017-04-24T16:48:51Z</time>
      </trkpt>
      <trkpt lat="49.17652" lon="-0.35844">
        <ele>25.521723</ele>
        <time>2017-04-24T16:48:55Z</time>
      </trkpt>
      <trkpt lat="49.17645" lon="-0.35831">
        <ele>25.51644</ele>
        <time>2017-04-24T16:48:59Z</time>
      </trkpt>
      <trkpt lat="49.17637" lon="-0.35822">
        <ele>25.614202</ele>
        <time>2017-04-24T16:49:03Z</time>
      </trkpt>
      <trkpt lat="49.17628" lon="-0.35816">
        <ele>25.384325</ele>
        <time>2017-04-24T16:49:08Z</time>
      </trkpt>
      <trkpt lat="49.17619" lon="-0.35818">
        <ele>25.101603</ele>
        <time>2017-04-24T16:49:12Z</time>
      </trkpt>
      <trkpt lat="49.17609" lon="-0.35827">
        <ele>25.072536</ele>
        <time>2017-04-24T16:49:16Z</time>
      </trkpt>
      <trkpt lat="49.17596" lon="-0.3584">
        <ele>25.29713</ele>
        <time>2017-04-24T16:49:20Z</time>
      </trkpt>
      <trkpt lat="49.1759" lon="-0.3585">
        <ele>25.55343</ele>
        <time>2017-04-24T16:49:23Z</time>
      </trkpt>
      <trkpt lat="49.17582" lon="-0.35862">
        <ele>25.20465</ele>
        <time>2017-04-24T16:49:27Z</time>
      </trkpt>
      <trkpt lat="49.17576" lon="-0.35873">
        <ele>25.085749</ele>
        <time>2017-04-24T16:49:31Z</time>
      </trkpt>
      <trkpt lat="49.1757" lon="-0.35884">
        <ele>25.3077</ele>
        <time>2017-04-24T16:49:35Z</time>
      </trkpt>
      <trkpt lat="49.17564" lon="-0.35895">
        <ele>25.114813</ele>
        <time>2017-04-24T16:49:39Z</time>
      </trkpt>
      <trkpt lat="49.17558" lon="-0.35906">
        <ele>24.456886</ele>
        <time>2017-04-24T16:49:43Z</time>
      </trkpt>
      <trkpt lat="49.1755" lon="-0.35916">
        <ele>24.38026</ele>
        <time>2017-04-24T16:49:48Z</time>
      </trkpt>
      <trkpt lat="49.17539" lon="-0.35931">
        <ele>24.470098</ele>
        <time>2017-04-24T16:49:52Z</time>
      </trkpt>
      <trkpt lat="49.17532" lon="-0.3594">
        <ele>24.652416</ele>
        <time>2017-04-24T16:49:56Z</time>
      </trkpt>
      <trkpt lat="49.17524" lon="-0.3595">
        <ele>24.491238</ele>
        <time>2017-04-24T16:50:00Z</time>
      </trkpt>
      <trkpt lat="49.17516" lon="-0.35964">
        <ele>24.515017</ele>
        <time>2017-04-24T16:50:05Z</time>
      </trkpt>
      <trkpt lat="49.17507" lon="-0.35975">
        <ele>24.36705</ele>
        <time>2017-04-24T16:50:09Z</time>
      </trkpt>
      <trkpt lat="49.175" lon="-0.35985">
        <ele>24.295708</ele>
        <time>2017-04-24T16:50:13Z</time>
      </trkpt>
      <trkpt lat="49.17493" lon="-0.35995">
        <ele>24.298351</ele>
        <time>2017-04-24T16:50:17Z</time>
      </trkpt>
      <trkpt lat="49.17485" lon="-0.36006">
        <ele>24.443676</ele>
        <time>2017-04-24T16:50:21Z</time>
      </trkpt>
      <trkpt lat="49.17479" lon="-0.36018">
        <ele>24.591642</ele>
        <time>2017-04-24T16:50:25Z</time>
      </trkpt>
      <trkpt lat="49.17471" lon="-0.3603">
        <ele>24.763391</ele>
        <time>2017-04-24T16:50:30Z</time>
      </trkpt>
      <trkpt lat="49.17464" lon="-0.36041">
        <ele>24.800383</ele>
        <time>2017-04-24T16:50:34Z</time>
      </trkpt>
      <trkpt lat="49.17457" lon="-0.36049">
        <ele>24.618067</ele>
        <time>2017-04-24T16:50:38Z</time>
      </trkpt>
      <trkpt lat="49.1745" lon="-0.36059">
        <ele>24.723757</ele>
        <time>2017-04-24T16:50:41Z</time>
      </trkpt>
      <trkpt lat="49.17443" lon="-0.36067">
        <ele>24.578432</ele>
        <time>2017-04-24T16:50:44Z</time>
      </trkpt>
      <trkpt lat="49.17436" lon="-0.36077">
        <ele>24.61014</ele>
        <time>2017-04-24T16:50:48Z</time>
      </trkpt>
      <trkpt lat="49.17429" lon="-0.36088">
        <ele>24.676195</ele>
        <time>2017-04-24T16:50:53Z</time>
      </trkpt>
      <trkpt lat="49.17422" lon="-0.36098">
        <ele>24.559937</ele>
        <time>2017-04-24T16:50:57Z</time>
      </trkpt>
      <trkpt lat="49.17416" lon="-0.36108">
        <ele>24.485952</ele>
        <time>2017-04-24T16:51:02Z</time>
      </trkpt>
      <trkpt lat="49.17409" lon="-0.36121">
        <ele>24.411968</ele>
        <time>2017-04-24T16:51:07Z</time>
      </trkpt>
      <trkpt lat="49.17403" lon="-0.36131">
        <ele>24.763391</ele>
        <time>2017-04-24T16:51:11Z</time>
      </trkpt>
      <trkpt lat="49.17397" lon="-0.36141">
        <ele>24.813595</ele>
        <time>2017-04-24T16:51:15Z</time>
      </trkpt>
      <trkpt lat="49.17389" lon="-0.36154">
        <ele>25.098959</ele>
        <time>2017-04-24T16:51:21Z</time>
      </trkpt>
      <trkpt lat="49.17383" lon="-0.36165">
        <ele>24.760748</ele>
        <time>2017-04-24T16:51:25Z</time>
      </trkpt>
      <trkpt lat="49.17378" lon="-0.36179">
        <ele>23.99449</ele>
        <time>2017-04-24T16:51:30Z</time>
      </trkpt>
      <trkpt lat="49.17371" lon="-0.3619">
        <ele>24.208513</ele>
        <time>2017-04-24T16:51:34Z</time>
      </trkpt>
      <trkpt lat="49.17363" lon="-0.36204">
        <ele>24.28778</ele>
        <time>2017-04-24T16:51:38Z</time>
      </trkpt>
      <trkpt lat="49.17356" lon="-0.36215">
        <ele>24.097538</ele>
        <time>2017-04-24T16:51:42Z</time>
      </trkpt>
      <trkpt lat="49.17348" lon="-0.36227">
        <ele>23.899368</ele>
        <time>2017-04-24T16:51:46Z</time>
      </trkpt>
      <trkpt lat="49.17341" lon="-0.36239">
        <ele>24.137173</ele>
        <time>2017-04-24T16:51:50Z</time>
      </trkpt>
      <trkpt lat="49.17332" lon="-0.36249">
        <ele>24.012985</ele>
        <time>2017-04-24T16:51:55Z</time>
      </trkpt>
      <trkpt lat="49.17326" lon="-0.36261">
        <ele>24.03148</ele>
        <time>2017-04-24T16:51:59Z</time>
      </trkpt>
      <trkpt lat="49.17316" lon="-0.36275">
        <ele>24.10018</ele>
        <time>2017-04-24T16:52:04Z</time>
      </trkpt>
      <trkpt lat="49.17308" lon="-0.36287">
        <ele>24.147741</ele>
        <time>2017-04-24T16:52:08Z</time>
      </trkpt>
      <trkpt lat="49.173" lon="-0.36297">
        <ele>24.18209</ele>
        <time>2017-04-24T16:52:12Z</time>
      </trkpt>
      <trkpt lat="49.17294" lon="-0.36307">
        <ele>24.705261</ele>
        <time>2017-04-24T16:52:16Z</time>
      </trkpt>
      <trkpt lat="49.17286" lon="-0.36318">
        <ele>24.73961</ele>
        <time>2017-04-24T16:52:20Z</time>
      </trkpt>
      <trkpt lat="49.1728" lon="-0.36331">
        <ele>24.607496</ele>
        <time>2017-04-24T16:52:24Z</time>
      </trkpt>
      <trkpt lat="49.17275" lon="-0.36343">
        <ele>24.47274</ele>
        <time>2017-04-24T16:52:28Z</time>
      </trkpt>
      <trkpt lat="49.17265" lon="-0.36354">
        <ele>24.372334</ele>
        <time>2017-04-24T16:52:33Z</time>
      </trkpt>
      <trkpt lat="49.17257" lon="-0.36363">
        <ele>24.467457</ele>
        <time>2017-04-24T16:52:37Z</time>
      </trkpt>
      <trkpt lat="49.1725" lon="-0.36374">
        <ele>24.488594</ele>
        <time>2017-04-24T16:52:41Z</time>
      </trkpt>
      <trkpt lat="49.17241" lon="-0.36384">
        <ele>24.19266</ele>
        <time>2017-04-24T16:52:46Z</time>
      </trkpt>
      <trkpt lat="49.17234" lon="-0.36397">
        <ele>24.197945</ele>
        <time>2017-04-24T16:52:51Z</time>
      </trkpt>
      <trkpt lat="49.17229" lon="-0.36409">
        <ele>24.184732</ele>
        <time>2017-04-24T16:52:56Z</time>
      </trkpt>
      <trkpt lat="49.17222" lon="-0.36419">
        <ele>24.374977</ele>
        <time>2017-04-24T16:52:59Z</time>
      </trkpt>
      <trkpt lat="49.17215" lon="-0.36431">
        <ele>24.316847</ele>
        <time>2017-04-24T16:53:04Z</time>
      </trkpt>
      <trkpt lat="49.17209" lon="-0.36442">
        <ele>24.335342</ele>
        <time>2017-04-24T16:53:08Z</time>
      </trkpt>
      <trkpt lat="49.17202" lon="-0.36451">
        <ele>23.854448</ele>
        <time>2017-04-24T16:53:13Z</time>
      </trkpt>
      <trkpt lat="49.17194" lon="-0.36463">
        <ele>24.166237</ele>
        <time>2017-04-24T16:53:18Z</time>
      </trkpt>
      <trkpt lat="49.17186" lon="-0.36477">
        <ele>23.917864</ele>
        <time>2017-04-24T16:53:23Z</time>
      </trkpt>
      <trkpt lat="49.1718" lon="-0.36489">
        <ele>24.139814</ele>
        <time>2017-04-24T16:53:28Z</time>
      </trkpt>
      <trkpt lat="49.17174" lon="-0.36501">
        <ele>23.946928</ele>
        <time>2017-04-24T16:53:33Z</time>
      </trkpt>
      <trkpt lat="49.17174" lon="-0.36517">
        <ele>23.561157</ele>
        <time>2017-04-24T16:53:37Z</time>
      </trkpt>
      <trkpt lat="49.17175" lon="-0.36531">
        <ele>23.492456</ele>
        <time>2017-04-24T16:53:41Z</time>
      </trkpt>
      <trkpt lat="49.17174" lon="-0.36547">
        <ele>23.45018</ele>
        <time>2017-04-24T16:53:47Z</time>
      </trkpt>
      <trkpt lat="49.17174" lon="-0.36564">
        <ele>23.830667</ele>
        <time>2017-04-24T16:53:52Z</time>
      </trkpt>
      <trkpt lat="49.17175" lon="-0.3658">
        <ele>23.793676</ele>
        <time>2017-04-24T16:53:57Z</time>
      </trkpt>
      <trkpt lat="49.17173" lon="-0.36594">
        <ele>24.713188</ele>
        <time>2017-04-24T16:54:02Z</time>
      </trkpt>
      <trkpt lat="49.17171" lon="-0.36612">
        <ele>24.137173</ele>
        <time>2017-04-24T16:54:08Z</time>
      </trkpt>
      <trkpt lat="49.17168" lon="-0.36628">
        <ele>24.364408</ele>
        <time>2017-04-24T16:54:13Z</time>
      </trkpt>
      <trkpt lat="49.17167" lon="-0.36642">
        <ele>23.894083</ele>
        <time>2017-04-24T16:54:17Z</time>
      </trkpt>
      <trkpt lat="49.17164" lon="-0.36657">
        <ele>24.340628</ele>
        <time>2017-04-24T16:54:22Z</time>
      </trkpt>
      <trkpt lat="49.1716" lon="-0.36674">
        <ele>24.063189</ele>
        <time>2017-04-24T16:54:29Z</time>
      </trkpt>
      <trkpt lat="49.17156" lon="-0.36689">
        <ele>24.18209</ele>
        <time>2017-04-24T16:54:34Z</time>
      </trkpt>
      <trkpt lat="49.17149" lon="-0.36703">
        <ele>23.846521</ele>
        <time>2017-04-24T16:54:39Z</time>
      </trkpt>
      <trkpt lat="49.17144" lon="-0.36716">
        <ele>24.0077</ele>
        <time>2017-04-24T16:54:44Z</time>
      </trkpt>
      <trkpt lat="49.17138" lon="-0.36728">
        <ele>24.020912</ele>
        <time>2017-04-24T16:54:49Z</time>
      </trkpt>
      <trkpt lat="49.17133" lon="-0.3674">
        <ele>24.06583</ele>
        <time>2017-04-24T16:54:53Z</time>
      </trkpt>
      <trkpt lat="49.17127" lon="-0.36753">
        <ele>24.195303</ele>
        <time>2017-04-24T16:54:58Z</time>
      </trkpt>
      <trkpt lat="49.17121" lon="-0.36767">
        <ele>23.632498</ele>
        <time>2017-04-24T16:55:04Z</time>
      </trkpt>
      <trkpt lat="49.17116" lon="-0.36778">
        <ele>23.719692</ele>
        <time>2017-04-24T16:55:08Z</time>
      </trkpt>
      <trkpt lat="49.1711" lon="-0.36791">
        <ele>23.521523</ele>
        <time>2017-04-24T16:55:13Z</time>
      </trkpt>
      <trkpt lat="49.17105" lon="-0.36805">
        <ele>23.743473</ele>
        <time>2017-04-24T16:55:18Z</time>
      </trkpt>
      <trkpt lat="49.171" lon="-0.36817">
        <ele>23.769896</ele>
        <time>2017-04-24T16:55:22Z</time>
      </trkpt>
      <trkpt lat="49.17094" lon="-0.36831">
        <ele>24.012985</ele>
        <time>2017-04-24T16:55:27Z</time>
      </trkpt>
      <trkpt lat="49.1709" lon="-0.36844">
        <ele>23.962782</ele>
        <time>2017-04-24T16:55:32Z</time>
      </trkpt>
      <trkpt lat="49.17085" lon="-0.36856">
        <ele>24.0764</ele>
        <time>2017-04-24T16:55:36Z</time>
      </trkpt>
      <trkpt lat="49.1708" lon="-0.36869">
        <ele>23.60079</ele>
        <time>2017-04-24T16:55:41Z</time>
      </trkpt>
      <trkpt lat="49.17076" lon="-0.36882">
        <ele>24.554651</ele>
        <time>2017-04-24T16:55:46Z</time>
      </trkpt>
      <trkpt lat="49.17072" lon="-0.36895">
        <ele>24.660343</ele>
        <time>2017-04-24T16:55:51Z</time>
      </trkpt>
      <trkpt lat="49.17068" lon="-0.3691">
        <ele>24.993269</ele>
        <time>2017-04-24T16:55:56Z</time>
      </trkpt>
      <trkpt lat="49.17065" lon="-0.36924">
        <ele>25.48209</ele>
        <time>2017-04-24T16:56:01Z</time>
      </trkpt>
      <trkpt lat="49.17062" lon="-0.36938">
        <ele>25.431887</ele>
        <time>2017-04-24T16:56:07Z</time>
      </trkpt>
      <trkpt lat="49.17059" lon="-0.36951">
        <ele>25.434528</ele>
        <time>2017-04-24T16:56:11Z</time>
      </trkpt>
      <trkpt lat="49.17055" lon="-0.36967">
        <ele>25.410748</ele>
        <time>2017-04-24T16:56:16Z</time>
      </trkpt>
      <trkpt lat="49.17053" lon="-0.36983">
        <ele>25.490017</ele>
        <time>2017-04-24T16:56:22Z</time>
      </trkpt>
      <trkpt lat="49.17051" lon="-0.36997">
        <ele>25.828228</ele>
        <time>2017-04-24T16:56:27Z</time>
      </trkpt>
      <trkpt lat="49.17049" lon="-0.37013">
        <ele>25.71461</ele>
        <time>2017-04-24T16:56:33Z</time>
      </trkpt>
      <trkpt lat="49.17046" lon="-0.37028">
        <ele>25.775381</ele>
        <time>2017-04-24T16:56:39Z</time>
      </trkpt>
      <trkpt lat="49.17043" lon="-0.37041">
        <ele>24.612782</ele>
        <time>2017-04-24T16:56:44Z</time>
      </trkpt>
      <trkpt lat="49.1704" lon="-0.37054">
        <ele>24.258717</ele>
        <time>2017-04-24T16:56:48Z</time>
      </trkpt>
      <trkpt lat="49.17037" lon="-0.37069">
        <ele>23.920506</ele>
        <time>2017-04-24T16:56:53Z</time>
      </trkpt>
      <trkpt lat="49.17034" lon="-0.37086">
        <ele>23.777822</ele>
        <time>2017-04-24T16:56:59Z</time>
      </trkpt>
      <trkpt lat="49.17033" lon="-0.37102">
        <ele>23.484531</ele>
        <time>2017-04-24T16:57:05Z</time>
      </trkpt>
      <trkpt lat="49.17033" lon="-0.37117">
        <ele>23.468678</ele>
        <time>2017-04-24T16:57:11Z</time>
      </trkpt>
      <trkpt lat="49.17033" lon="-0.37132">
        <ele>23.516237</ele>
        <time>2017-04-24T16:57:16Z</time>
      </trkpt>
      <trkpt lat="49.17033" lon="-0.37148">
        <ele>23.331278</ele>
        <time>2017-04-24T16:57:21Z</time>
      </trkpt>
      <trkpt lat="49.17033" lon="-0.37163">
        <ele>23.476604</ele>
        <time>2017-04-24T16:57:26Z</time>
      </trkpt>
      <trkpt lat="49.17032" lon="-0.37179">
        <ele>23.143677</ele>
        <time>2017-04-24T16:57:31Z</time>
      </trkpt>
      <trkpt lat="49.17033" lon="-0.37195">
        <ele>23.648352</ele>
        <time>2017-04-24T16:57:37Z</time>
      </trkpt>
      <trkpt lat="49.17034" lon="-0.37209">
        <ele>24.089611</ele>
        <time>2017-04-24T16:57:42Z</time>
      </trkpt>
      <trkpt lat="49.17036" lon="-0.37222">
        <ele>24.1451</ele>
        <time>2017-04-24T16:57:46Z</time>
      </trkpt>
      <trkpt lat="49.17039" lon="-0.37236">
        <ele>24.049976</ele>
        <time>2017-04-24T16:57:51Z</time>
      </trkpt>
      <trkpt lat="49.1704" lon="-0.37251">
        <ele>23.759327</ele>
        <time>2017-04-24T16:57:56Z</time>
      </trkpt>
      <trkpt lat="49.17042" lon="-0.37266">
        <ele>24.073757</ele>
        <time>2017-04-24T16:58:02Z</time>
      </trkpt>
      <trkpt lat="49.17045" lon="-0.3728">
        <ele>24.234936</ele>
        <time>2017-04-24T16:58:08Z</time>
      </trkpt>
      <trkpt lat="49.17049" lon="-0.37295">
        <ele>24.594286</ele>
        <time>2017-04-24T16:58:13Z</time>
      </trkpt>
      <trkpt lat="49.17054" lon="-0.37309">
        <ele>24.27457</ele>
        <time>2017-04-24T16:58:19Z</time>
      </trkpt>
      <trkpt lat="49.1706" lon="-0.37322">
        <ele>24.522943</ele>
        <time>2017-04-24T16:58:24Z</time>
      </trkpt>
      <trkpt lat="49.17066" lon="-0.37334">
        <ele>24.631277</ele>
        <time>2017-04-24T16:58:29Z</time>
      </trkpt>
      <trkpt lat="49.17073" lon="-0.37344">
        <ele>24.153027</ele>
        <time>2017-04-24T16:58:34Z</time>
      </trkpt>
      <trkpt lat="49.17082" lon="-0.37355">
        <ele>23.820099</ele>
        <time>2017-04-24T16:58:39Z</time>
      </trkpt>
      <trkpt lat="49.1709" lon="-0.37365">
        <ele>23.886156</ele>
        <time>2017-04-24T16:58:44Z</time>
      </trkpt>
      <trkpt lat="49.17098" lon="-0.37373">
        <ele>24.002417</ele>
        <time>2017-04-24T16:58:48Z</time>
      </trkpt>
      <trkpt lat="49.17107" lon="-0.3738">
        <ele>24.190018</ele>
        <time>2017-04-24T16:58:54Z</time>
      </trkpt>
      <trkpt lat="49.17117" lon="-0.37385">
        <ele>23.812172</ele>
        <time>2017-04-24T16:58:59Z</time>
      </trkpt>
      <trkpt lat="49.17126" lon="-0.3739">
        <ele>23.94957</ele>
        <time>2017-04-24T16:59:05Z</time>
      </trkpt>
      <trkpt lat="49.17135" lon="-0.3739">
        <ele>23.592863</ele>
        <time>2017-04-24T16:59:10Z</time>
      </trkpt>
      <trkpt lat="49.17146" lon="-0.3739">
        <ele>23.68006</ele>
        <time>2017-04-24T16:59:15Z</time>
      </trkpt>
      <trkpt lat="49.17156" lon="-0.37388">
        <ele>23.77518</ele>
        <time>2017-04-24T16:59:22Z</time>
      </trkpt>
      <trkpt lat="49.17166" lon="-0.37384">
        <ele>24.229652</ele>
        <time>2017-04-24T16:59:27Z</time>
      </trkpt>
      <trkpt lat="49.17175" lon="-0.37381">
        <ele>24.047335</ele>
        <time>2017-04-24T16:59:32Z</time>
      </trkpt>
      <trkpt lat="49.17186" lon="-0.37376">
        <ele>24.073757</ele>
        <time>2017-04-24T16:59:37Z</time>
      </trkpt>
      <trkpt lat="49.17195" lon="-0.37372">
        <ele>23.99449</ele>
        <time>2017-04-24T16:59:42Z</time>
      </trkpt>
      <trkpt lat="49.17205" lon="-0.37368">
        <ele>24.195303</ele>
        <time>2017-04-24T16:59:48Z</time>
      </trkpt>
      <trkpt lat="49.17215" lon="-0.37363">
        <ele>23.917864</ele>
        <time>2017-04-24T16:59:54Z</time>
      </trkpt>
      <trkpt lat="49.17226" lon="-0.37358">
        <ele>24.345911</ele>
        <time>2017-04-24T16:59:59Z</time>
      </trkpt>
      <trkpt lat="49.17235" lon="-0.37354">
        <ele>24.478025</ele>
        <time>2017-04-24T17:00:03Z</time>
      </trkpt>
      <trkpt lat="49.17244" lon="-0.37352">
        <ele>23.714409</ele>
        <time>2017-04-24T17:00:08Z</time>
      </trkpt>
      <trkpt lat="49.17253" lon="-0.37349">
        <ele>23.997131</ele>
        <time>2017-04-24T17:00:14Z</time>
      </trkpt>
      <trkpt lat="49.17263" lon="-0.37344">
        <ele>23.555872</ele>
        <time>2017-04-24T17:00:19Z</time>
      </trkpt>
      <trkpt lat="49.17273" lon="-0.37341">
        <ele>23.695911</ele>
        <time>2017-04-24T17:00:24Z</time>
      </trkpt>
      <trkpt lat="49.17282" lon="-0.37337">
        <ele>24.11075</ele>
        <time>2017-04-24T17:00:28Z</time>
      </trkpt>
      <trkpt lat="49.17292" lon="-0.37332">
        <ele>23.825384</ele>
        <time>2017-04-24T17:00:33Z</time>
      </trkpt>
      <trkpt lat="49.17301" lon="-0.37327">
        <ele>23.748758</ele>
        <time>2017-04-24T17:00:38Z</time>
      </trkpt>
      <trkpt lat="49.1731" lon="-0.3732">
        <ele>23.849165</ele>
        <time>2017-04-24T17:00:43Z</time>
      </trkpt>
      <trkpt lat="49.17318" lon="-0.37312">
        <ele>23.812172</ele>
        <time>2017-04-24T17:00:48Z</time>
      </trkpt>
      <trkpt lat="49.17326" lon="-0.37305">
        <ele>23.97335</ele>
        <time>2017-04-24T17:00:53Z</time>
      </trkpt>
      <trkpt lat="49.17336" lon="-0.373">
        <ele>23.828026</ele>
        <time>2017-04-24T17:00:58Z</time>
      </trkpt>
      <trkpt lat="49.17345" lon="-0.37293">
        <ele>23.981277</ele>
        <time>2017-04-24T17:01:03Z</time>
      </trkpt>
      <trkpt lat="49.17354" lon="-0.37284">
        <ele>24.396114</ele>
        <time>2017-04-24T17:01:08Z</time>
      </trkpt>
      <trkpt lat="49.17362" lon="-0.37279">
        <ele>24.406685</ele>
        <time>2017-04-24T17:01:12Z</time>
      </trkpt>
      <trkpt lat="49.17371" lon="-0.37272">
        <ele>24.205872</ele>
        <time>2017-04-24T17:01:17Z</time>
      </trkpt>
      <trkpt lat="49.17378" lon="-0.37264">
        <ele>24.232294</ele>
        <time>2017-04-24T17:01:22Z</time>
      </trkpt>
      <trkpt lat="49.17387" lon="-0.37255">
        <ele>24.174164</ele>
        <time>2017-04-24T17:01:27Z</time>
      </trkpt>
      <trkpt lat="49.17394" lon="-0.37243">
        <ele>24.256075</ele>
        <time>2017-04-24T17:01:33Z</time>
      </trkpt>
      <trkpt lat="49.17403" lon="-0.37233">
        <ele>23.983921</ele>
        <time>2017-04-24T17:01:38Z</time>
      </trkpt>
      <trkpt lat="49.17411" lon="-0.37225">
        <ele>23.920506</ele>
        <time>2017-04-24T17:01:43Z</time>
      </trkpt>
      <trkpt lat="49.17418" lon="-0.37214">
        <ele>23.77254</ele>
        <time>2017-04-24T17:01:48Z</time>
      </trkpt>
      <trkpt lat="49.17426" lon="-0.37203">
        <ele>23.857092</ele>
        <time>2017-04-24T17:01:52Z</time>
      </trkpt>
      <trkpt lat="49.17433" lon="-0.37192">
        <ele>23.614002</ele>
        <time>2017-04-24T17:01:56Z</time>
      </trkpt>
      <trkpt lat="49.17441" lon="-0.3718">
        <ele>23.360344</ele>
        <time>2017-04-24T17:02:00Z</time>
      </trkpt>
      <trkpt lat="49.17447" lon="-0.37169">
        <ele>23.207092</ele>
        <time>2017-04-24T17:02:05Z</time>
      </trkpt>
      <trkpt lat="49.17453" lon="-0.37157">
        <ele>23.262579</ele>
        <time>2017-04-24T17:02:10Z</time>
      </trkpt>
      <trkpt lat="49.17458" lon="-0.37144">
        <ele>23.127823</ele>
        <time>2017-04-24T17:02:16Z</time>
      </trkpt>
      <trkpt lat="49.17463" lon="-0.37133">
        <ele>22.998352</ele>
        <time>2017-04-24T17:02:21Z</time>
      </trkpt>
      <trkpt lat="49.17469" lon="-0.37119">
        <ele>23.254652</ele>
        <time>2017-04-24T17:02:26Z</time>
      </trkpt>
      <trkpt lat="49.17474" lon="-0.37108">
        <ele>23.185953</ele>
        <time>2017-04-24T17:02:31Z</time>
      </trkpt>
      <trkpt lat="49.17482" lon="-0.37095">
        <ele>23.156889</ele>
        <time>2017-04-24T17:02:37Z</time>
      </trkpt>
      <trkpt lat="49.17488" lon="-0.37085">
        <ele>23.183311</ele>
        <time>2017-04-24T17:02:41Z</time>
      </trkpt>
      <trkpt lat="49.17493" lon="-0.37073">
        <ele>23.537376</ele>
        <time>2017-04-24T17:02:45Z</time>
      </trkpt>
      <trkpt lat="49.175" lon="-0.37061">
        <ele>23.674774</ele>
        <time>2017-04-24T17:02:50Z</time>
      </trkpt>
      <trkpt lat="49.17508" lon="-0.37049">
        <ele>23.62193</ele>
        <time>2017-04-24T17:02:55Z</time>
      </trkpt>
      <trkpt lat="49.17516" lon="-0.37037">
        <ele>23.333921</ele>
        <time>2017-04-24T17:03:00Z</time>
      </trkpt>
      <trkpt lat="49.17522" lon="-0.37023">
        <ele>23.196522</ele>
        <time>2017-04-24T17:03:06Z</time>
      </trkpt>
      <trkpt lat="49.17532" lon="-0.37009">
        <ele>23.362986</ele>
        <time>2017-04-24T17:03:11Z</time>
      </trkpt>
      <trkpt lat="49.17539" lon="-0.36997">
        <ele>22.927011</ele>
        <time>2017-04-24T17:03:17Z</time>
      </trkpt>
      <trkpt lat="49.17546" lon="-0.36987">
        <ele>22.900587</ele>
        <time>2017-04-24T17:03:20Z</time>
      </trkpt>
      <trkpt lat="49.17553" lon="-0.36978">
        <ele>23.056482</ele>
        <time>2017-04-24T17:03:23Z</time>
      </trkpt>
      <trkpt lat="49.17559" lon="-0.36965">
        <ele>23.394693</ele>
        <time>2017-04-24T17:03:27Z</time>
      </trkpt>
      <trkpt lat="49.17566" lon="-0.36954">
        <ele>23.571726</ele>
        <time>2017-04-24T17:03:31Z</time>
      </trkpt>
      <trkpt lat="49.17572" lon="-0.36943">
        <ele>23.19388</ele>
        <time>2017-04-24T17:03:35Z</time>
      </trkpt>
      <trkpt lat="49.17579" lon="-0.3693">
        <ele>23.389408</ele>
        <time>2017-04-24T17:03:39Z</time>
      </trkpt>
      <trkpt lat="49.17586" lon="-0.3692">
        <ele>23.283718</ele>
        <time>2017-04-24T17:03:43Z</time>
      </trkpt>
      <trkpt lat="49.17593" lon="-0.36908">
        <ele>23.521523</ele>
        <time>2017-04-24T17:03:48Z</time>
      </trkpt>
      <trkpt lat="49.17598" lon="-0.36896">
        <ele>22.882092</ele>
        <time>2017-04-24T17:03:53Z</time>
      </trkpt>
      <trkpt lat="49.17604" lon="-0.36883">
        <ele>23.035343</ele>
        <time>2017-04-24T17:03:59Z</time>
      </trkpt>
      <trkpt lat="49.17611" lon="-0.36872">
        <ele>22.990425</ele>
        <time>2017-04-24T17:04:03Z</time>
      </trkpt>
      <trkpt lat="49.17617" lon="-0.3686">
        <ele>22.871523</ele>
        <time>2017-04-24T17:04:07Z</time>
      </trkpt>
      <trkpt lat="49.17623" lon="-0.36849">
        <ele>22.987783</ele>
        <time>2017-04-24T17:04:11Z</time>
      </trkpt>
      <trkpt lat="49.17632" lon="-0.36838">
        <ele>23.175385</ele>
        <time>2017-04-24T17:04:15Z</time>
      </trkpt>
      <trkpt lat="49.17638" lon="-0.36827">
        <ele>23.312782</ele>
        <time>2017-04-24T17:04:20Z</time>
      </trkpt>
      <trkpt lat="49.17646" lon="-0.36817">
        <ele>23.896725</ele>
        <time>2017-04-24T17:04:24Z</time>
      </trkpt>
      <trkpt lat="49.17655" lon="-0.3681">
        <ele>23.73819</ele>
        <time>2017-04-24T17:04:30Z</time>
      </trkpt>
      <trkpt lat="49.17664" lon="-0.36803">
        <ele>24.53087</ele>
        <time>2017-04-24T17:04:35Z</time>
      </trkpt>
      <trkpt lat="49.1767" lon="-0.3679">
        <ele>25.384325</ele>
        <time>2017-04-24T17:04:44Z</time>
      </trkpt>
      <trkpt lat="49.17678" lon="-0.3678">
        <ele>25.225788</ele>
        <time>2017-04-24T17:04:48Z</time>
      </trkpt>
      <trkpt lat="49.17684" lon="-0.36769">
        <ele>25.579853</ele>
        <time>2017-04-24T17:04:52Z</time>
      </trkpt>
      <trkpt lat="49.1769" lon="-0.36757">
        <ele>25.764812</ele>
        <time>2017-04-24T17:04:56Z</time>
      </trkpt>
      <trkpt lat="49.17695" lon="-0.36742">
        <ele>25.54022</ele>
        <time>2017-04-24T17:04:59Z</time>
      </trkpt>
      <trkpt lat="49.17699" lon="-0.36729">
        <ele>25.270708</ele>
        <time>2017-04-24T17:05:02Z</time>
      </trkpt>
      <trkpt lat="49.17703" lon="-0.36712">
        <ele>25.45831</ele>
        <time>2017-04-24T17:05:05Z</time>
      </trkpt>
      <trkpt lat="49.17709" lon="-0.36701">
        <ele>25.550789</ele>
        <time>2017-04-24T17:05:09Z</time>
      </trkpt>
      <trkpt lat="49.17716" lon="-0.36687">
        <ele>25.51644</ele>
        <time>2017-04-24T17:05:13Z</time>
      </trkpt>
      <trkpt lat="49.17723" lon="-0.36673">
        <ele>25.503227</ele>
        <time>2017-04-24T17:05:17Z</time>
      </trkpt>
      <trkpt lat="49.17727" lon="-0.36659">
        <ele>25.643269</ele>
        <time>2017-04-24T17:05:20Z</time>
      </trkpt>
      <trkpt lat="49.17731" lon="-0.3664">
        <ele>25.733105</ele>
        <time>2017-04-24T17:05:24Z</time>
      </trkpt>
      <trkpt lat="49.17737" lon="-0.36629">
        <ele>26.208715</ele>
        <time>2017-04-24T17:05:26Z</time>
      </trkpt>
      <trkpt lat="49.17744" lon="-0.36615">
        <ele>25.788593</ele>
        <time>2017-04-24T17:05:30Z</time>
      </trkpt>
      <trkpt lat="49.17749" lon="-0.36598">
        <ele>26.134731</ele>
        <time>2017-04-24T17:05:34Z</time>
      </trkpt>
      <trkpt lat="49.17753" lon="-0.36585">
        <ele>26.174366</ele>
        <time>2017-04-24T17:05:37Z</time>
      </trkpt>
      <trkpt lat="49.17756" lon="-0.36571">
        <ele>25.445097</ele>
        <time>2017-04-24T17:05:41Z</time>
      </trkpt>
      <trkpt lat="49.17762" lon="-0.36558">
        <ele>25.54022</ele>
        <time>2017-04-24T17:05:44Z</time>
      </trkpt>
      <trkpt lat="49.17767" lon="-0.36546">
        <ele>25.524366</ele>
        <time>2017-04-24T17:05:47Z</time>
      </trkpt>
      <trkpt lat="49.17772" lon="-0.36533">
        <ele>25.579853</ele>
        <time>2017-04-24T17:05:51Z</time>
      </trkpt>
      <trkpt lat="49.17777" lon="-0.36521">
        <ele>25.40282</ele>
        <time>2017-04-24T17:05:55Z</time>
      </trkpt>
      <trkpt lat="49.17782" lon="-0.36506">
        <ele>25.125383</ele>
        <time>2017-04-24T17:06:00Z</time>
      </trkpt>
      <trkpt lat="49.17788" lon="-0.36493">
        <ele>25.104244</ele>
        <time>2017-04-24T17:06:04Z</time>
      </trkpt>
      <trkpt lat="49.17787" lon="-0.36478">
        <ele>25.175587</ele>
        <time>2017-04-24T17:06:08Z</time>
      </trkpt>
      <trkpt lat="49.1779" lon="-0.36462">
        <ele>25.244286</ele>
        <time>2017-04-24T17:06:12Z</time>
      </trkpt>
      <trkpt lat="49.17792" lon="-0.36448">
        <ele>25.223146</ele>
        <time>2017-04-24T17:06:17Z</time>
      </trkpt>
      <trkpt lat="49.17791" lon="-0.36432">
        <ele>25.188797</ele>
        <time>2017-04-24T17:06:22Z</time>
      </trkpt>
      <trkpt lat="49.17791" lon="-0.36419">
        <ele>25.508512</ele>
        <time>2017-04-24T17:06:26Z</time>
      </trkpt>
      <trkpt lat="49.17793" lon="-0.36403">
        <ele>25.534935</ele>
        <time>2017-04-24T17:06:31Z</time>
      </trkpt>
      <trkpt lat="49.1779" lon="-0.36387">
        <ele>25.4953</ele>
        <time>2017-04-24T17:06:35Z</time>
      </trkpt>
      <trkpt lat="49.1779" lon="-0.36373">
        <ele>25.918064</ele>
        <time>2017-04-24T17:06:40Z</time>
      </trkpt>
      <trkpt lat="49.17791" lon="-0.36357">
        <ele>25.582497</ele>
        <time>2017-04-24T17:06:45Z</time>
      </trkpt>
      <trkpt lat="49.17793" lon="-0.36342">
        <ele>25.693472</ele>
        <time>2017-04-24T17:06:50Z</time>
      </trkpt>
      <trkpt lat="49.17795" lon="-0.36328">
        <ele>25.38961</ele>
        <time>2017-04-24T17:06:54Z</time>
      </trkpt>
      <trkpt lat="49.17796" lon="-0.36314">
        <ele>25.70404</ele>
        <time>2017-04-24T17:06:58Z</time>
      </trkpt>
      <trkpt lat="49.17796" lon="-0.36299">
        <ele>25.51644</ele>
        <time>2017-04-24T17:07:04Z</time>
      </trkpt>
      <trkpt lat="49.17796" lon="-0.36285">
        <ele>26.044893</ele>
        <time>2017-04-24T17:07:08Z</time>
      </trkpt>
      <trkpt lat="49.17799" lon="-0.3627">
        <ele>25.910137</ele>
        <time>2017-04-24T17:07:13Z</time>
      </trkpt>
      <trkpt lat="49.17802" lon="-0.36256">
        <ele>25.545504</ele>
        <time>2017-04-24T17:07:18Z</time>
      </trkpt>
      <trkpt lat="49.17806" lon="-0.36242">
        <ele>25.3077</ele>
        <time>2017-04-24T17:07:22Z</time>
      </trkpt>
      <trkpt lat="49.17811" lon="-0.36228">
        <ele>25.4953</ele>
        <time>2017-04-24T17:07:26Z</time>
      </trkpt>
      <trkpt lat="49.17819" lon="-0.36218">
        <ele>25.022333</ele>
        <time>2017-04-24T17:07:30Z</time>
      </trkpt>
      <trkpt lat="49.17824" lon="-0.36205">
        <ele>24.929853</ele>
        <time>2017-04-24T17:07:35Z</time>
      </trkpt>
      <trkpt lat="49.17828" lon="-0.36191">
        <ele>24.929853</ele>
        <time>2017-04-24T17:07:39Z</time>
      </trkpt>
      <trkpt lat="49.17834" lon="-0.36176">
        <ele>25.408106</ele>
        <time>2017-04-24T17:07:44Z</time>
      </trkpt>
      <trkpt lat="49.17838" lon="-0.36162">
        <ele>25.091034</ele>
        <time>2017-04-24T17:07:47Z</time>
      </trkpt>
      <trkpt lat="49.17836" lon="-0.36148">
        <ele>25.31034</ele>
        <time>2017-04-24T17:07:51Z</time>
      </trkpt>
      <trkpt lat="49.17832" lon="-0.36135">
        <ele>25.048756</ele>
        <time>2017-04-24T17:07:55Z</time>
      </trkpt>
      <trkpt lat="49.17826" lon="-0.36123">
        <ele>24.929853</ele>
        <time>2017-04-24T17:07:59Z</time>
      </trkpt>
      <trkpt lat="49.1782" lon="-0.36109">
        <ele>25.01705</ele>
        <time>2017-04-24T17:08:03Z</time>
      </trkpt>
      <trkpt lat="49.17811" lon="-0.36098">
        <ele>24.768675</ele>
        <time>2017-04-24T17:08:07Z</time>
      </trkpt>
      <trkpt lat="49.17803" lon="-0.36087">
        <ele>24.522943</ele>
        <time>2017-04-24T17:08:12Z</time>
      </trkpt>
      <trkpt lat="49.17796" lon="-0.36074">
        <ele>24.763391</ele>
        <time>2017-04-24T17:08:15Z</time>
      </trkpt>
      <trkpt lat="49.1779" lon="-0.36063">
        <ele>25.194082</ele>
        <time>2017-04-24T17:08:19Z</time>
      </trkpt>
      <trkpt lat="49.17783" lon="-0.36052">
        <ele>25.009123</ele>
        <time>2017-04-24T17:08:22Z</time>
      </trkpt>
      <trkpt lat="49.17773" lon="-0.36039">
        <ele>25.04083</ele>
        <time>2017-04-24T17:08:26Z</time>
      </trkpt>
      <trkpt lat="49.17765" lon="-0.36029">
        <ele>25.336765</ele>
        <time>2017-04-24T17:08:31Z</time>
      </trkpt>
      <trkpt lat="49.17756" lon="-0.36017">
        <ele>25.305058</ele>
        <time>2017-04-24T17:08:36Z</time>
      </trkpt>
      <trkpt lat="49.17748" lon="-0.36006">
        <ele>24.887577</ele>
        <time>2017-04-24T17:08:41Z</time>
      </trkpt>
      <trkpt lat="49.1774" lon="-0.35999">
        <ele>25.091034</ele>
        <time>2017-04-24T17:08:46Z</time>
      </trkpt>
      <trkpt lat="49.1773" lon="-0.35981">
        <ele>25.046114</ele>
        <time>2017-04-24T17:08:51Z</time>
      </trkpt>
      <trkpt lat="49.17723" lon="-0.35966">
        <ele>25.06461</ele>
        <time>2017-04-24T17:08:56Z</time>
      </trkpt>
      <trkpt lat="49.17715" lon="-0.35956">
        <ele>24.945707</ele>
        <time>2017-04-24T17:09:01Z</time>
      </trkpt>
      <trkpt lat="49.17708" lon="-0.35944">
        <ele>24.729042</ele>
        <time>2017-04-24T17:09:06Z</time>
      </trkpt>
      <trkpt lat="49.17701" lon="-0.35933">
        <ele>25.326195</ele>
        <time>2017-04-24T17:09:12Z</time>
      </trkpt>
      <trkpt lat="49.17695" lon="-0.35922">
        <ele>25.223146</ele>
        <time>2017-04-24T17:09:16Z</time>
      </trkpt>
      <trkpt lat="49.17689" lon="-0.3591">
        <ele>24.993269</ele>
        <time>2017-04-24T17:09:20Z</time>
      </trkpt>
      <trkpt lat="49.17683" lon="-0.35899">
        <ele>24.803024</ele>
        <time>2017-04-24T17:09:25Z</time>
      </trkpt>
      <trkpt lat="49.17678" lon="-0.35885">
        <ele>24.68148</ele>
        <time>2017-04-24T17:09:30Z</time>
      </trkpt>
      <trkpt lat="49.1767" lon="-0.35871">
        <ele>24.887577</ele>
        <time>2017-04-24T17:09:33Z</time>
      </trkpt>
      <trkpt lat="49.17659" lon="-0.35858">
        <ele>25.006481</ele>
        <time>2017-04-24T17:09:39Z</time>
      </trkpt>
      <trkpt lat="49.17653" lon="-0.35849">
        <ele>25.080463</ele>
        <time>2017-04-24T17:09:43Z</time>
      </trkpt>
      <trkpt lat="49.17645" lon="-0.35837">
        <ele>25.046114</ele>
        <time>2017-04-24T17:09:47Z</time>
      </trkpt>
      <trkpt lat="49.17637" lon="-0.35827">
        <ele>25.199366</ele>
        <time>2017-04-24T17:09:50Z</time>
      </trkpt>
      <trkpt lat="49.17629" lon="-0.35817">
        <ele>24.66827</ele>
        <time>2017-04-24T17:09:54Z</time>
      </trkpt>
      <trkpt lat="49.17619" lon="-0.35811">
        <ele>24.641846</ele>
        <time>2017-04-24T17:09:59Z</time>
      </trkpt>
      <trkpt lat="49.17608" lon="-0.35815">
        <ele>24.840017</ele>
        <time>2017-04-24T17:10:03Z</time>
      </trkpt>
      <trkpt lat="49.176" lon="-0.35823">
        <ele>25.128025</ele>
        <time>2017-04-24T17:10:07Z</time>
      </trkpt>
      <trkpt lat="49.17594" lon="-0.35833">
        <ele>25.534935</ele>
        <time>2017-04-24T17:10:11Z</time>
      </trkpt>
      <trkpt lat="49.17585" lon="-0.35845">
        <ele>24.919285</ele>
        <time>2017-04-24T17:10:15Z</time>
      </trkpt>
      <trkpt lat="49.17579" lon="-0.35855">
        <ele>25.257496</ele>
        <time>2017-04-24T17:10:19Z</time>
      </trkpt>
      <trkpt lat="49.1757" lon="-0.35869">
        <ele>24.813595</ele>
        <time>2017-04-24T17:10:23Z</time>
      </trkpt>
      <trkpt lat="49.17564" lon="-0.35881">
        <ele>24.567863</ele>
        <time>2017-04-24T17:10:27Z</time>
      </trkpt>
      <trkpt lat="49.17558" lon="-0.35892">
        <ele>24.721115</ele>
        <time>2017-04-24T17:10:31Z</time>
      </trkpt>
      <trkpt lat="49.1755" lon="-0.35902">
        <ele>24.961561</ele>
        <time>2017-04-24T17:10:36Z</time>
      </trkpt>
      <trkpt lat="49.17543" lon="-0.35913">
        <ele>24.75018</ele>
        <time>2017-04-24T17:10:41Z</time>
      </trkpt>
      <trkpt lat="49.17535" lon="-0.35924">
        <ele>25.170301</ele>
        <time>2017-04-24T17:10:47Z</time>
      </trkpt>
      <trkpt lat="49.17527" lon="-0.35936">
        <ele>25.019691</ele>
        <time>2017-04-24T17:10:51Z</time>
      </trkpt>
      <trkpt lat="49.1752" lon="-0.35948">
        <ele>24.990627</ele>
        <time>2017-04-24T17:10:55Z</time>
      </trkpt>
      <trkpt lat="49.17511" lon="-0.35963">
        <ele>24.66827</ele>
        <time>2017-04-24T17:11:00Z</time>
      </trkpt>
      <trkpt lat="49.17505" lon="-0.35974">
        <ele>24.895504</ele>
        <time>2017-04-24T17:11:04Z</time>
      </trkpt>
      <trkpt lat="49.17498" lon="-0.35986">
        <ele>24.166237</ele>
        <time>2017-04-24T17:11:09Z</time>
      </trkpt>
      <trkpt lat="49.17491" lon="-0.35999">
        <ele>24.319489</ele>
        <time>2017-04-24T17:11:13Z</time>
      </trkpt>
      <trkpt lat="49.17483" lon="-0.36011">
        <ele>23.954855</ele>
        <time>2017-04-24T17:11:19Z</time>
      </trkpt>
      <trkpt lat="49.17476" lon="-0.3602">
        <ele>24.04205</ele>
        <time>2017-04-24T17:11:23Z</time>
      </trkpt>
      <trkpt lat="49.17468" lon="-0.3603">
        <ele>24.398758</ele>
        <time>2017-04-24T17:11:27Z</time>
      </trkpt>
      <trkpt lat="49.1746" lon="-0.36041">
        <ele>24.25079</ele>
        <time>2017-04-24T17:11:32Z</time>
      </trkpt>
      <trkpt lat="49.17455" lon="-0.36053">
        <ele>24.079042</ele>
        <time>2017-04-24T17:11:36Z</time>
      </trkpt>
      <trkpt lat="49.17447" lon="-0.36064">
        <ele>24.05262</ele>
        <time>2017-04-24T17:11:40Z</time>
      </trkpt>
      <trkpt lat="49.17439" lon="-0.36075">
        <ele>24.147741</ele>
        <time>2017-04-24T17:11:46Z</time>
      </trkpt>
      <trkpt lat="49.17432" lon="-0.36084">
        <ele>23.970709</ele>
        <time>2017-04-24T17:11:50Z</time>
      </trkpt>
      <trkpt lat="49.17426" lon="-0.36096">
        <ele>24.232294</ele>
        <time>2017-04-24T17:11:55Z</time>
      </trkpt>
      <trkpt lat="49.1742" lon="-0.36108">
        <ele>25.043472</ele>
        <time>2017-04-24T17:12:00Z</time>
      </trkpt>
      <trkpt lat="49.17415" lon="-0.36119">
        <ele>24.980057</ele>
        <time>2017-04-24T17:12:05Z</time>
      </trkpt>
      <trkpt lat="49.17407" lon="-0.3613">
        <ele>24.591642</ele>
        <time>2017-04-24T17:12:10Z</time>
      </trkpt>
      <trkpt lat="49.174" lon="-0.36142">
        <ele>25.027618</ele>
        <time>2017-04-24T17:12:15Z</time>
      </trkpt>
      <trkpt lat="49.1739" lon="-0.36155">
        <ele>25.035545</ele>
        <time>2017-04-24T17:12:21Z</time>
      </trkpt>
      <trkpt lat="49.17382" lon="-0.36167">
        <ele>24.747538</ele>
        <time>2017-04-24T17:12:25Z</time>
      </trkpt>
      <trkpt lat="49.17375" lon="-0.36181">
        <ele>24.75018</ele>
        <time>2017-04-24T17:12:29Z</time>
      </trkpt>
      <trkpt lat="49.17368" lon="-0.36193">
        <ele>24.908716</ele>
        <time>2017-04-24T17:12:34Z</time>
      </trkpt>
      <trkpt lat="49.17362" lon="-0.36204">
        <ele>24.921928</ele>
        <time>2017-04-24T17:12:39Z</time>
      </trkpt>
      <trkpt lat="49.17353" lon="-0.36221">
        <ele>24.692049</ele>
        <time>2017-04-24T17:12:46Z</time>
      </trkpt>
      <trkpt lat="49.17347" lon="-0.36232">
        <ele>24.855871</ele>
        <time>2017-04-24T17:12:49Z</time>
      </trkpt>
      <trkpt lat="49.1734" lon="-0.36242">
        <ele>24.723757</ele>
        <time>2017-04-24T17:12:53Z</time>
      </trkpt>
      <trkpt lat="49.17334" lon="-0.36253">
        <ele>24.48331</ele>
        <time>2017-04-24T17:12:58Z</time>
      </trkpt>
      <trkpt lat="49.17329" lon="-0.36265">
        <ele>24.536156</ele>
        <time>2017-04-24T17:13:02Z</time>
      </trkpt>
      <trkpt lat="49.17321" lon="-0.36276">
        <ele>24.327415</ele>
        <time>2017-04-24T17:13:07Z</time>
      </trkpt>
      <trkpt lat="49.17313" lon="-0.36285">
        <ele>24.356482</ele>
        <time>2017-04-24T17:13:12Z</time>
      </trkpt>
      <trkpt lat="49.17304" lon="-0.36295">
        <ele>24.652416</ele>
        <time>2017-04-24T17:13:17Z</time>
      </trkpt>
      <trkpt lat="49.173" lon="-0.36307">
        <ele>24.726398</ele>
        <time>2017-04-24T17:13:22Z</time>
      </trkpt>
      <trkpt lat="49.17294" lon="-0.36319">
        <ele>24.515017</ele>
        <time>2017-04-24T17:13:27Z</time>
      </trkpt>
      <trkpt lat="49.17285" lon="-0.3633">
        <ele>24.525587</ele>
        <time>2017-04-24T17:13:32Z</time>
      </trkpt>
      <trkpt lat="49.17278" lon="-0.36341">
        <ele>24.234936</ele>
        <time>2017-04-24T17:13:36Z</time>
      </trkpt>
      <trkpt lat="49.1727" lon="-0.36354">
        <ele>24.414612</ele>
        <time>2017-04-24T17:13:41Z</time>
      </trkpt>
      <trkpt lat="49.17262" lon="-0.36364">
        <ele>24.810951</ele>
        <time>2017-04-24T17:13:45Z</time>
      </trkpt>
      <trkpt lat="49.17255" lon="-0.36374">
        <ele>25.067253</ele>
        <time>2017-04-24T17:13:49Z</time>
      </trkpt>
      <trkpt lat="49.17248" lon="-0.36386">
        <ele>25.043472</ele>
        <time>2017-04-24T17:13:55Z</time>
      </trkpt>
      <trkpt lat="49.17241" lon="-0.36396">
        <ele>25.104244</ele>
        <time>2017-04-24T17:14:00Z</time>
      </trkpt>
      <trkpt lat="49.17233" lon="-0.36408">
        <ele>24.707903</ele>
        <time>2017-04-24T17:14:05Z</time>
      </trkpt>
      <trkpt lat="49.17227" lon="-0.36418">
        <ele>24.602213</ele>
        <time>2017-04-24T17:14:08Z</time>
      </trkpt>
      <trkpt lat="49.1722" lon="-0.36429">
        <ele>24.816236</ele>
        <time>2017-04-24T17:14:13Z</time>
      </trkpt>
      <trkpt lat="49.17213" lon="-0.36437">
        <ele>24.9827</ele>
        <time>2017-04-24T17:14:17Z</time>
      </trkpt>
      <trkpt lat="49.17206" lon="-0.36447">
        <ele>24.83209</ele>
        <time>2017-04-24T17:14:21Z</time>
      </trkpt>
      <trkpt lat="49.17199" lon="-0.36458">
        <ele>25.254854</ele>
        <time>2017-04-24T17:14:26Z</time>
      </trkpt>
      <trkpt lat="49.17191" lon="-0.36468">
        <ele>25.130667</ele>
        <time>2017-04-24T17:14:31Z</time>
      </trkpt>
      <trkpt lat="49.17184" lon="-0.36481">
        <ele>25.207293</ele>
        <time>2017-04-24T17:14:36Z</time>
      </trkpt>
      <trkpt lat="49.17177" lon="-0.36497">
        <ele>25.077822</ele>
        <time>2017-04-24T17:14:42Z</time>
      </trkpt>
      <trkpt lat="49.17174" lon="-0.36513">
        <ele>24.351196</ele>
        <time>2017-04-24T17:14:47Z</time>
      </trkpt>
      <trkpt lat="49.17175" lon="-0.36529">
        <ele>23.97335</ele>
        <time>2017-04-24T17:14:51Z</time>
      </trkpt>
      <trkpt lat="49.17175" lon="-0.36546">
        <ele>24.536156</ele>
        <time>2017-04-24T17:14:55Z</time>
      </trkpt>
      <trkpt lat="49.17174" lon="-0.3656">
        <ele>24.43839</ele>
        <time>2017-04-24T17:15:00Z</time>
      </trkpt>
      <trkpt lat="49.17171" lon="-0.36576">
        <ele>24.520302</ele>
        <time>2017-04-24T17:15:05Z</time>
      </trkpt>
      <trkpt lat="49.17169" lon="-0.3659">
        <ele>24.546724</ele>
        <time>2017-04-24T17:15:09Z</time>
      </trkpt>
      <trkpt lat="49.17168" lon="-0.36605">
        <ele>24.660343</ele>
        <time>2017-04-24T17:15:14Z</time>
      </trkpt>
      <trkpt lat="49.17168" lon="-0.36621">
        <ele>24.824163</ele>
        <time>2017-04-24T17:15:20Z</time>
      </trkpt>
      <trkpt lat="49.17168" lon="-0.36636">
        <ele>24.676195</ele>
        <time>2017-04-24T17:15:24Z</time>
      </trkpt>
      <trkpt lat="49.17167" lon="-0.36652">
        <ele>24.871725</ele>
        <time>2017-04-24T17:15:29Z</time>
      </trkpt>
      <trkpt lat="49.17162" lon="-0.36665">
        <ele>24.874367</ele>
        <time>2017-04-24T17:15:33Z</time>
      </trkpt>
      <trkpt lat="49.17156" lon="-0.36682">
        <ele>25.3077</ele>
        <time>2017-04-24T17:15:38Z</time>
      </trkpt>
      <trkpt lat="49.17151" lon="-0.36695">
        <ele>25.254854</ele>
        <time>2017-04-24T17:15:43Z</time>
      </trkpt>
      <trkpt lat="49.17145" lon="-0.36707">
        <ele>25.283918</ele>
        <time>2017-04-24T17:15:47Z</time>
      </trkpt>
      <trkpt lat="49.17141" lon="-0.3672">
        <ele>25.112171</ele>
        <time>2017-04-24T17:15:52Z</time>
      </trkpt>
      <trkpt lat="49.17137" lon="-0.36733">
        <ele>25.236359</ele>
        <time>2017-04-24T17:15:57Z</time>
      </trkpt>
      <trkpt lat="49.17132" lon="-0.36748">
        <ele>24.987984</ele>
        <time>2017-04-24T17:16:03Z</time>
      </trkpt>
      <trkpt lat="49.17127" lon="-0.3676">
        <ele>25.252213</ele>
        <time>2017-04-24T17:16:07Z</time>
      </trkpt>
      <trkpt lat="49.1712" lon="-0.36774">
        <ele>25.268064</ele>
        <time>2017-04-24T17:16:11Z</time>
      </trkpt>
      <trkpt lat="49.17115" lon="-0.36787">
        <ele>25.239</ele>
        <time>2017-04-24T17:16:15Z</time>
      </trkpt>
      <trkpt lat="49.17109" lon="-0.368">
        <ele>25.426601</ele>
        <time>2017-04-24T17:16:20Z</time>
      </trkpt>
      <trkpt lat="49.17103" lon="-0.36814">
        <ele>25.249569</ele>
        <time>2017-04-24T17:16:25Z</time>
      </trkpt>
      <trkpt lat="49.17096" lon="-0.36827">
        <ele>25.857292</ele>
        <time>2017-04-24T17:16:30Z</time>
      </trkpt>
      <trkpt lat="49.17092" lon="-0.3684">
        <ele>25.022333</ele>
        <time>2017-04-24T17:16:34Z</time>
      </trkpt>
      <trkpt lat="49.17087" lon="-0.36854">
        <ele>25.257496</ele>
        <time>2017-04-24T17:16:38Z</time>
      </trkpt>
      <trkpt lat="49.17082" lon="-0.36867">
        <ele>25.239</ele>
        <time>2017-04-24T17:16:43Z</time>
      </trkpt>
      <trkpt lat="49.17077" lon="-0.36881">
        <ele>25.421318</ele>
        <time>2017-04-24T17:16:47Z</time>
      </trkpt>
      <trkpt lat="49.17072" lon="-0.36896">
        <ele>25.38961</ele>
        <time>2017-04-24T17:16:52Z</time>
      </trkpt>
      <trkpt lat="49.17068" lon="-0.3691">
        <ele>25.817657</ele>
        <time>2017-04-24T17:16:58Z</time>
      </trkpt>
      <trkpt lat="49.17066" lon="-0.36924">
        <ele>26.02904</ele>
        <time>2017-04-24T17:17:02Z</time>
      </trkpt>
      <trkpt lat="49.17063" lon="-0.3694">
        <ele>26.396317</ele>
        <time>2017-04-24T17:17:07Z</time>
      </trkpt>
      <trkpt lat="49.1706" lon="-0.36956">
        <ele>26.216642</ele>
        <time>2017-04-24T17:17:12Z</time>
      </trkpt>
      <trkpt lat="49.17057" lon="-0.3697">
        <ele>26.531073</ele>
        <time>2017-04-24T17:17:16Z</time>
      </trkpt>
      <trkpt lat="49.17056" lon="-0.36974">
        <ele>26.686966</ele>
        <time>2017-04-24T17:17:17Z</time>
      </trkpt>
      <trkpt lat="49.17055" lon="-0.36978">
        <ele>26.734528</ele>
        <time>2017-04-24T17:17:18Z</time>
      </trkpt>
      <trkpt lat="49.17054" lon="-0.36981">
        <ele>26.914202</ele>
        <time>2017-04-24T17:17:19Z</time>
      </trkpt>
      <trkpt lat="49.17054" lon="-0.36985">
        <ele>26.922129</ele>
        <time>2017-04-24T17:17:20Z</time>
      </trkpt>
      <trkpt lat="49.17053" lon="-0.36988">
        <ele>26.940624</ele>
        <time>2017-04-24T17:17:21Z</time>
      </trkpt>
      <trkpt lat="49.17053" lon="-0.36992">
        <ele>26.840218</ele>
        <time>2017-04-24T17:17:22Z</time>
      </trkpt>
      <trkpt lat="49.17049" lon="-0.37006">
        <ele>26.977617</ele>
        <time>2017-04-24T17:17:27Z</time>
      </trkpt>
      <trkpt lat="49.17049" lon="-0.37009">
        <ele>27.199568</ele>
        <time>2017-04-24T17:17:28Z</time>
      </trkpt>
      <trkpt lat="49.17048" lon="-0.37012">
        <ele>26.977617</ele>
        <time>2017-04-24T17:17:29Z</time>
      </trkpt>
      <trkpt lat="49.17045" lon="-0.37026">
        <ele>26.816439</ele>
        <time>2017-04-24T17:17:33Z</time>
      </trkpt>
      <trkpt lat="49.17041" lon="-0.37041">
        <ele>26.721315</ele>
        <time>2017-04-24T17:17:38Z</time>
      </trkpt>
      <trkpt lat="49.17038" lon="-0.37062">
        <ele>26.943268</ele>
        <time>2017-04-24T17:17:45Z</time>
      </trkpt>
      <trkpt lat="49.17037" lon="-0.37066">
        <ele>26.716032</ele>
        <time>2017-04-24T17:17:46Z</time>
      </trkpt>
      <trkpt lat="49.17035" lon="-0.3708">
        <ele>25.98148</ele>
        <time>2017-04-24T17:17:50Z</time>
      </trkpt>
      <trkpt lat="49.17033" lon="-0.37096">
        <ele>25.178228</ele>
        <time>2017-04-24T17:17:55Z</time>
      </trkpt>
      <trkpt lat="49.17033" lon="-0.3711">
        <ele>24.678839</ele>
        <time>2017-04-24T17:17:59Z</time>
      </trkpt>
      <trkpt lat="49.17032" lon="-0.37124">
        <ele>25.386967</ele>
        <time>2017-04-24T17:18:04Z</time>
      </trkpt>
      <trkpt lat="49.17031" lon="-0.3714">
        <ele>25.384325</ele>
        <time>2017-04-24T17:18:08Z</time>
      </trkpt>
      <trkpt lat="49.1703" lon="-0.37155">
        <ele>24.919285</ele>
        <time>2017-04-24T17:18:12Z</time>
      </trkpt>
      <trkpt lat="49.1703" lon="-0.37171">
        <ele>25.268064</ele>
        <time>2017-04-24T17:18:16Z</time>
      </trkpt>
      <trkpt lat="49.1703" lon="-0.37185">
        <ele>24.966846</ele>
        <time>2017-04-24T17:18:20Z</time>
      </trkpt>
      <trkpt lat="49.1703" lon="-0.37201">
        <ele>24.520302</ele>
        <time>2017-04-24T17:18:25Z</time>
      </trkpt>
      <trkpt lat="49.17032" lon="-0.37218">
        <ele>24.699976</ele>
        <time>2017-04-24T17:18:30Z</time>
      </trkpt>
      <trkpt lat="49.17033" lon="-0.37232">
        <ele>24.64449</ele>
        <time>2017-04-24T17:18:35Z</time>
      </trkpt>
      <trkpt lat="49.17037" lon="-0.37248">
        <ele>25.035545</ele>
        <time>2017-04-24T17:18:40Z</time>
      </trkpt>
      <trkpt lat="49.1704" lon="-0.37264">
        <ele>25.022333</ele>
        <time>2017-04-24T17:18:45Z</time>
      </trkpt>
      <trkpt lat="49.17043" lon="-0.37279">
        <ele>24.71583</ele>
        <time>2017-04-24T17:18:50Z</time>
      </trkpt>
      <trkpt lat="49.17049" lon="-0.37295">
        <ele>24.821522</ele>
        <time>2017-04-24T17:18:55Z</time>
      </trkpt>
      <trkpt lat="49.17053" lon="-0.37309">
        <ele>24.80831</ele>
        <time>2017-04-24T17:18:59Z</time>
      </trkpt>
      <trkpt lat="49.17058" lon="-0.37321">
        <ele>25.101603</ele>
        <time>2017-04-24T17:19:03Z</time>
      </trkpt>
      <trkpt lat="49.17064" lon="-0.37334">
        <ele>24.919285</ele>
        <time>2017-04-24T17:19:08Z</time>
      </trkpt>
      <trkpt lat="49.1707" lon="-0.37346">
        <ele>25.785952</ele>
        <time>2017-04-24T17:19:12Z</time>
      </trkpt>
      <trkpt lat="49.17076" lon="-0.37357">
        <ele>25.281277</ele>
        <time>2017-04-24T17:19:17Z</time>
      </trkpt>
      <trkpt lat="49.17084" lon="-0.37367">
        <ele>25.83087</ele>
        <time>2017-04-24T17:19:22Z</time>
      </trkpt>
      <trkpt lat="49.17093" lon="-0.37375">
        <ele>25.711967</ele>
        <time>2017-04-24T17:19:26Z</time>
      </trkpt>
      <trkpt lat="49.17102" lon="-0.37379">
        <ele>25.719894</ele>
        <time>2017-04-24T17:19:30Z</time>
      </trkpt>
      <trkpt lat="49.1711" lon="-0.37382">
        <ele>25.727821</ele>
        <time>2017-04-24T17:19:35Z</time>
      </trkpt>
      <trkpt lat="49.17121" lon="-0.37385">
        <ele>25.844082</ele>
        <time>2017-04-24T17:19:40Z</time>
      </trkpt>
      <trkpt lat="49.17132" lon="-0.37389">
        <ele>25.635342</ele>
        <time>2017-04-24T17:19:44Z</time>
      </trkpt>
      <trkpt lat="49.17142" lon="-0.37391">
        <ele>25.249569</ele>
        <time>2017-04-24T17:19:49Z</time>
      </trkpt>
      <trkpt lat="49.17154" lon="-0.37391">
        <ele>25.405464</ele>
        <time>2017-04-24T17:19:54Z</time>
      </trkpt>
      <trkpt lat="49.17163" lon="-0.37389">
        <ele>25.114813</ele>
        <time>2017-04-24T17:19:58Z</time>
      </trkpt>
      <trkpt lat="49.17172" lon="-0.37387">
        <ele>25.35526</ele>
        <time>2017-04-24T17:20:02Z</time>
      </trkpt>
      <trkpt lat="49.17183" lon="-0.37382">
        <ele>25.217861</ele>
        <time>2017-04-24T17:20:07Z</time>
      </trkpt>
      <trkpt lat="49.17194" lon="-0.37379">
        <ele>25.231073</ele>
        <time>2017-04-24T17:20:12Z</time>
      </trkpt>
      <trkpt lat="49.17202" lon="-0.37373">
        <ele>25.009123</ele>
        <time>2017-04-24T17:20:16Z</time>
      </trkpt>
      <trkpt lat="49.17212" lon="-0.37367">
        <ele>25.038187</ele>
        <time>2017-04-24T17:20:21Z</time>
      </trkpt>
      <trkpt lat="49.17221" lon="-0.37362">
        <ele>24.694693</ele>
        <time>2017-04-24T17:20:26Z</time>
      </trkpt>
      <trkpt lat="49.17232" lon="-0.37357">
        <ele>24.9827</ele>
        <time>2017-04-24T17:20:32Z</time>
      </trkpt>
      <trkpt lat="49.17241" lon="-0.37354">
        <ele>24.781887</ele>
        <time>2017-04-24T17:20:36Z</time>
      </trkpt>
      <trkpt lat="49.1725" lon="-0.37349">
        <ele>24.993269</ele>
        <time>2017-04-24T17:20:40Z</time>
      </trkpt>
      <trkpt lat="49.17259" lon="-0.37343">
        <ele>25.334122</ele>
        <time>2017-04-24T17:20:45Z</time>
      </trkpt>
      <trkpt lat="49.1727" lon="-0.3734">
        <ele>25.191439</ele>
        <time>2017-04-24T17:20:50Z</time>
      </trkpt>
      <trkpt lat="49.17279" lon="-0.37335">
        <ele>25.984121</ele>
        <time>2017-04-24T17:20:56Z</time>
      </trkpt>
      <trkpt lat="49.17287" lon="-0.37327">
        <ele>25.746317</ele>
        <time>2017-04-24T17:21:01Z</time>
      </trkpt>
      <trkpt lat="49.17296" lon="-0.37321">
        <ele>25.593065</ele>
        <time>2017-04-24T17:21:06Z</time>
      </trkpt>
      <trkpt lat="49.17305" lon="-0.37314">
        <ele>25.857292</ele>
        <time>2017-04-24T17:21:12Z</time>
      </trkpt>
      <trkpt lat="49.17315" lon="-0.37308">
        <ele>25.989407</ele>
        <time>2017-04-24T17:21:16Z</time>
      </trkpt>
      <trkpt lat="49.17326" lon="-0.37299">
        <ele>25.859934</ele>
        <time>2017-04-24T17:21:22Z</time>
      </trkpt>
      <trkpt lat="49.17336" lon="-0.37293">
        <ele>25.801805</ele>
        <time>2017-04-24T17:21:27Z</time>
      </trkpt>
      <trkpt lat="49.17345" lon="-0.37286">
        <ele>25.688187</ele>
        <time>2017-04-24T17:21:31Z</time>
      </trkpt>
      <trkpt lat="49.17354" lon="-0.37278">
        <ele>25.70404</ele>
        <time>2017-04-24T17:21:36Z</time>
      </trkpt>
      <trkpt lat="49.17363" lon="-0.37269">
        <ele>25.54022</ele>
        <time>2017-04-24T17:21:41Z</time>
      </trkpt>
      <trkpt lat="49.17372" lon="-0.37261">
        <ele>26.07396</ele>
        <time>2017-04-24T17:21:45Z</time>
      </trkpt>
      <trkpt lat="49.17381" lon="-0.37253">
        <ele>25.677618</ele>
        <time>2017-04-24T17:21:49Z</time>
      </trkpt>
      <trkpt lat="49.17391" lon="-0.37243">
        <ele>25.059326</ele>
        <time>2017-04-24T17:21:54Z</time>
      </trkpt>
      <trkpt lat="49.17398" lon="-0.37232">
        <ele>25.701399</ele>
        <time>2017-04-24T17:21:59Z</time>
      </trkpt>
      <trkpt lat="49.17406" lon="-0.37221">
        <ele>25.172943</ele>
        <time>2017-04-24T17:22:02Z</time>
      </trkpt>
      <trkpt lat="49.17414" lon="-0.3721">
        <ele>25.07518</ele>
        <time>2017-04-24T17:22:06Z</time>
      </trkpt>
      <trkpt lat="49.17424" lon="-0.372">
        <ele>25.024977</ele>
        <time>2017-04-24T17:22:10Z</time>
      </trkpt>
      <trkpt lat="49.17431" lon="-0.37191">
        <ele>25.268064</ele>
        <time>2017-04-24T17:22:14Z</time>
      </trkpt>
      <trkpt lat="49.17439" lon="-0.37183">
        <ele>24.818878</ele>
        <time>2017-04-24T17:22:19Z</time>
      </trkpt>
      <trkpt lat="49.17445" lon="-0.37173">
        <ele>24.652416</ele>
        <time>2017-04-24T17:22:25Z</time>
      </trkpt>
      <trkpt lat="49.1745" lon="-0.37159">
        <ele>24.409327</ele>
        <time>2017-04-24T17:22:30Z</time>
      </trkpt>
      <trkpt lat="49.17455" lon="-0.37145">
        <ele>24.79774</ele>
        <time>2017-04-24T17:22:35Z</time>
      </trkpt>
      <trkpt lat="49.17462" lon="-0.37133">
        <ele>25.085749</ele>
        <time>2017-04-24T17:22:39Z</time>
      </trkpt>
      <trkpt lat="49.17469" lon="-0.37122">
        <ele>24.940424</ele>
        <time>2017-04-24T17:22:44Z</time>
      </trkpt>
      <trkpt lat="49.17476" lon="-0.3711">
        <ele>25.281277</ele>
        <time>2017-04-24T17:22:48Z</time>
      </trkpt>
      <trkpt lat="49.17484" lon="-0.37097">
        <ele>25.328838</ele>
        <time>2017-04-24T17:22:53Z</time>
      </trkpt>
      <trkpt lat="49.1749" lon="-0.37087">
        <ele>24.840017</ele>
        <time>2017-04-24T17:22:57Z</time>
      </trkpt>
      <trkpt lat="49.17497" lon="-0.37074">
        <ele>24.80831</ele>
        <time>2017-04-24T17:23:02Z</time>
      </trkpt>
      <trkpt lat="49.17503" lon="-0.37061">
        <ele>25.085749</ele>
        <time>2017-04-24T17:23:07Z</time>
      </trkpt>
      <trkpt lat="49.1751" lon="-0.37049">
        <ele>24.908716</ele>
        <time>2017-04-24T17:23:12Z</time>
      </trkpt>
      <trkpt lat="49.17516" lon="-0.37038">
        <ele>25.009123</ele>
        <time>2017-04-24T17:23:17Z</time>
      </trkpt>
      <trkpt lat="49.17523" lon="-0.37027">
        <ele>24.961561</ele>
        <time>2017-04-24T17:23:22Z</time>
      </trkpt>
      <trkpt lat="49.1753" lon="-0.37014">
        <ele>24.906075</ele>
        <time>2017-04-24T17:23:26Z</time>
      </trkpt>
      <trkpt lat="49.17537" lon="-0.37004">
        <ele>25.138594</ele>
        <time>2017-04-24T17:23:30Z</time>
      </trkpt>
      <trkpt lat="49.17543" lon="-0.36992">
        <ele>25.302414</ele>
        <time>2017-04-24T17:23:34Z</time>
      </trkpt>
      <trkpt lat="49.17551" lon="-0.36982">
        <ele>24.858513</ele>
        <time>2017-04-24T17:23:38Z</time>
      </trkpt>
      <trkpt lat="49.17559" lon="-0.3697">
        <ele>24.6577</ele>
        <time>2017-04-24T17:23:42Z</time>
      </trkpt>
      <trkpt lat="49.17566" lon="-0.36958">
        <ele>24.945707</ele>
        <time>2017-04-24T17:23:48Z</time>
      </trkpt>
      <trkpt lat="49.17573" lon="-0.36949">
        <ele>24.884935</ele>
        <time>2017-04-24T17:23:52Z</time>
      </trkpt>
      <trkpt lat="49.1758" lon="-0.36938">
        <ele>24.927212</ele>
        <time>2017-04-24T17:23:57Z</time>
      </trkpt>
      <trkpt lat="49.17586" lon="-0.36926">
        <ele>24.93778</ele>
        <time>2017-04-24T17:24:01Z</time>
      </trkpt>
      <trkpt lat="49.17593" lon="-0.36914">
        <ele>24.874367</ele>
        <time>2017-04-24T17:24:05Z</time>
      </trkpt>
      <trkpt lat="49.17599" lon="-0.36904">
        <ele>25.20201</ele>
        <time>2017-04-24T17:24:10Z</time>
      </trkpt>
      <trkpt lat="49.17607" lon="-0.36894">
        <ele>25.096317</ele>
        <time>2017-04-24T17:24:15Z</time>
      </trkpt>
      <trkpt lat="49.17613" lon="-0.36883">
        <ele>24.993269</ele>
        <time>2017-04-24T17:24:20Z</time>
      </trkpt>
      <trkpt lat="49.17619" lon="-0.36871">
        <ele>25.619488</ele>
        <time>2017-04-24T17:24:25Z</time>
      </trkpt>
      <trkpt lat="49.17624" lon="-0.36859">
        <ele>25.120098</ele>
        <time>2017-04-24T17:24:30Z</time>
      </trkpt>
      <trkpt lat="49.17631" lon="-0.36849">
        <ele>25.15709</ele>
        <time>2017-04-24T17:24:34Z</time>
      </trkpt>
      <trkpt lat="49.17639" lon="-0.36838">
        <ele>25.379042</ele>
        <time>2017-04-24T17:24:39Z</time>
      </trkpt>
      <trkpt lat="49.17646" lon="-0.36828">
        <ele>25.537577</ele>
        <time>2017-04-24T17:24:43Z</time>
      </trkpt>
      <trkpt lat="49.17654" lon="-0.36817">
        <ele>25.86786</ele>
        <time>2017-04-24T17:24:48Z</time>
      </trkpt>
      <trkpt lat="49.17662" lon="-0.36806">
        <ele>26.594486</ele>
        <time>2017-04-24T17:24:54Z</time>
      </trkpt>
      <trkpt lat="49.1767" lon="-0.36798">
        <ele>27.0516</ele>
        <time>2017-04-24T17:24:59Z</time>
      </trkpt>
      <trkpt lat="49.1768" lon="-0.3679">
        <ele>27.112373</ele>
        <time>2017-04-24T17:25:05Z</time>
      </trkpt>
      <trkpt lat="49.17686" lon="-0.3678">
        <ele>27.06217</ele>
        <time>2017-04-24T17:25:10Z</time>
      </trkpt>
      <trkpt lat="49.17695" lon="-0.36769">
        <ele>27.630259</ele>
        <time>2017-04-24T17:25:15Z</time>
      </trkpt>
      <trkpt lat="49.17696" lon="-0.36766">
        <ele>27.643469</ele>
        <time>2017-04-24T17:25:16Z</time>
      </trkpt>
      <trkpt lat="49.17698" lon="-0.36763">
        <ele>27.59591</ele>
        <time>2017-04-24T17:25:17Z</time>
      </trkpt>
      <trkpt lat="49.17706" lon="-0.36752">
        <ele>27.363388</ele>
        <time>2017-04-24T17:25:21Z</time>
      </trkpt>
      <trkpt lat="49.17707" lon="-0.36749">
        <ele>27.136152</ele>
        <time>2017-04-24T17:25:22Z</time>
      </trkpt>
      <trkpt lat="49.17713" lon="-0.36738">
        <ele>27.247128</ele>
        <time>2017-04-24T17:25:25Z</time>
      </trkpt>
      <trkpt lat="49.17716" lon="-0.36722">
        <ele>27.173145</ele>
        <time>2017-04-24T17:25:29Z</time>
      </trkpt>
      <trkpt lat="49.17719" lon="-0.36709">
        <ele>27.083307</ele>
        <time>2017-04-24T17:25:33Z</time>
      </trkpt>
      <trkpt lat="49.17725" lon="-0.36695">
        <ele>27.159933</ele>
        <time>2017-04-24T17:25:37Z</time>
      </trkpt>
      <trkpt lat="49.1773" lon="-0.36682">
        <ele>27.215422</ele>
        <time>2017-04-24T17:25:43Z</time>
      </trkpt>
      <trkpt lat="49.17734" lon="-0.36668">
        <ele>27.157291</ele>
        <time>2017-04-24T17:25:48Z</time>
      </trkpt>
      <trkpt lat="49.17739" lon="-0.36655">
        <ele>27.056885</ele>
        <time>2017-04-24T17:25:54Z</time>
      </trkpt>
      <trkpt lat="49.17742" lon="-0.36641">
        <ele>27.162575</ele>
        <time>2017-04-24T17:25:59Z</time>
      </trkpt>
      <trkpt lat="49.17747" lon="-0.36627">
        <ele>27.15465</ele>
        <time>2017-04-24T17:26:04Z</time>
      </trkpt>
      <trkpt lat="49.17753" lon="-0.36615">
        <ele>27.767656</ele>
        <time>2017-04-24T17:26:08Z</time>
      </trkpt>
      <trkpt lat="49.17753" lon="-0.36612">
        <ele>27.812574</ele>
        <time>2017-04-24T17:26:09Z</time>
      </trkpt>
      <trkpt lat="49.17756" lon="-0.36595">
        <ele>28.045095</ele>
        <time>2017-04-24T17:26:14Z</time>
      </trkpt>
      <trkpt lat="49.17757" lon="-0.36592">
        <ele>28.029242</ele>
        <time>2017-04-24T17:26:15Z</time>
      </trkpt>
      <trkpt lat="49.17762" lon="-0.36578">
        <ele>27.971111</ele>
        <time>2017-04-24T17:26:20Z</time>
      </trkpt>
      <trkpt lat="49.17765" lon="-0.36564">
        <ele>28.105867</ele>
        <time>2017-04-24T17:26:23Z</time>
      </trkpt>
      <trkpt lat="49.17765" lon="-0.3656">
        <ele>28.21156</ele>
        <time>2017-04-24T17:26:24Z</time>
      </trkpt>
      <trkpt lat="49.17766" lon="-0.36557">
        <ele>27.802006</ele>
        <time>2017-04-24T17:26:25Z</time>
      </trkpt>
      <trkpt lat="49.17769" lon="-0.36543">
        <ele>27.751802</ele>
        <time>2017-04-24T17:26:29Z</time>
      </trkpt>
      <trkpt lat="49.17772" lon="-0.36528">
        <ele>27.915625</ele>
        <time>2017-04-24T17:26:34Z</time>
      </trkpt>
      <trkpt lat="49.17776" lon="-0.36513">
        <ele>28.055664</ele>
        <time>2017-04-24T17:26:39Z</time>
      </trkpt>
      <trkpt lat="49.1778" lon="-0.365">
        <ele>28.150785</ele>
        <time>2017-04-24T17:26:45Z</time>
      </trkpt>
      <trkpt lat="49.17781" lon="-0.36485">
        <ele>28.01603</ele>
        <time>2017-04-24T17:26:50Z</time>
      </trkpt>
      <trkpt lat="49.17781" lon="-0.36482">
        <ele>27.807291</ele>
        <time>2017-04-24T17:26:51Z</time>
      </trkpt>
      <trkpt lat="49.1778" lon="-0.36466">
        <ele>27.780869</ele>
        <time>2017-04-24T17:26:56Z</time>
      </trkpt>
      <trkpt lat="49.1778" lon="-0.3645">
        <ele>27.672535</ele>
        <time>2017-04-24T17:27:00Z</time>
      </trkpt>
      <trkpt lat="49.17781" lon="-0.36435">
        <ele>27.392454</ele>
        <time>2017-04-24T17:27:04Z</time>
      </trkpt>
      <trkpt lat="49.17783" lon="-0.36419">
        <ele>27.218063</ele>
        <time>2017-04-24T17:27:09Z</time>
      </trkpt>
      <trkpt lat="49.17784" lon="-0.36405">
        <ele>27.34225</ele>
        <time>2017-04-24T17:27:13Z</time>
      </trkpt>
      <trkpt lat="49.17785" lon="-0.36388">
        <ele>26.922129</ele>
        <time>2017-04-24T17:27:18Z</time>
      </trkpt>
      <trkpt lat="49.17787" lon="-0.36374">
        <ele>26.967047</ele>
        <time>2017-04-24T17:27:21Z</time>
      </trkpt>
      <trkpt lat="49.17789" lon="-0.36359">
        <ele>26.642048</ele>
        <time>2017-04-24T17:27:25Z</time>
      </trkpt>
      <trkpt lat="49.17791" lon="-0.36344">
        <ele>27.395096</ele>
        <time>2017-04-24T17:27:30Z</time>
      </trkpt>
      <trkpt lat="49.17791" lon="-0.36328">
        <ele>27.371315</ele>
        <time>2017-04-24T17:27:35Z</time>
      </trkpt>
      <trkpt lat="49.1779" lon="-0.36314">
        <ele>27.823145</ele>
        <time>2017-04-24T17:27:40Z</time>
      </trkpt>
      <trkpt lat="49.17791" lon="-0.36297">
        <ele>27.683104</ele>
        <time>2017-04-24T17:27:45Z</time>
      </trkpt>
      <trkpt lat="49.17794" lon="-0.36282">
        <ele>27.52721</ele>
        <time>2017-04-24T17:27:50Z</time>
      </trkpt>
      <trkpt lat="49.17799" lon="-0.36267">
        <ele>27.767656</ele>
        <time>2017-04-24T17:27:55Z</time>
      </trkpt>
      <trkpt lat="49.17803" lon="-0.36253">
        <ele>27.593266</ele>
        <time>2017-04-24T17:27:59Z</time>
      </trkpt>
      <trkpt lat="49.17807" lon="-0.36241">
        <ele>27.51664</ele>
        <time>2017-04-24T17:28:03Z</time>
      </trkpt>
      <trkpt lat="49.17812" lon="-0.36228">
        <ele>27.360746</ele>
        <time>2017-04-24T17:28:07Z</time>
      </trkpt>
      <trkpt lat="49.17817" lon="-0.36215">
        <ele>27.55099</ele>
        <time>2017-04-24T17:28:11Z</time>
      </trkpt>
      <trkpt lat="49.17822" lon="-0.36201">
        <ele>27.60912</ele>
        <time>2017-04-24T17:28:15Z</time>
      </trkpt>
      <trkpt lat="49.17826" lon="-0.36185">
        <ele>27.738592</ele>
        <time>2017-04-24T17:28:19Z</time>
      </trkpt>
      <trkpt lat="49.17831" lon="-0.36173">
        <ele>27.791437</ele>
        <time>2017-04-24T17:28:23Z</time>
      </trkpt>
      <trkpt lat="49.17837" lon="-0.36158">
        <ele>27.741234</ele>
        <time>2017-04-24T17:28:27Z</time>
      </trkpt>
      <trkpt lat="49.17835" lon="-0.36145">
        <ele>27.743876</ele>
        <time>2017-04-24T17:28:31Z</time>
      </trkpt>
      <trkpt lat="49.1783" lon="-0.3613">
        <ele>27.521925</ele>
        <time>2017-04-24T17:28:35Z</time>
      </trkpt>
      <trkpt lat="49.17824" lon="-0.36118">
        <ele>27.099161</ele>
        <time>2017-04-24T17:28:39Z</time>
      </trkpt>
      <trkpt lat="49.17815" lon="-0.36108">
        <ele>28.319891</ele>
        <time>2017-04-24T17:28:44Z</time>
      </trkpt>
      <trkpt lat="49.17809" lon="-0.36099">
        <ele>28.214201</ele>
        <time>2017-04-24T17:28:48Z</time>
      </trkpt>
      <trkpt lat="49.17801" lon="-0.36089">
        <ele>26.721315</ele>
        <time>2017-04-24T17:28:52Z</time>
      </trkpt>
      <trkpt lat="49.17794" lon="-0.36078">
        <ele>26.602413</ele>
        <time>2017-04-24T17:28:57Z</time>
      </trkpt>
      <trkpt lat="49.17786" lon="-0.36067">
        <ele>26.583918</ele>
        <time>2017-04-24T17:29:02Z</time>
      </trkpt>
      <trkpt lat="49.1778" lon="-0.36055">
        <ele>26.710747</ele>
        <time>2017-04-24T17:29:06Z</time>
      </trkpt>
      <trkpt lat="49.17774" lon="-0.36043">
        <ele>26.63148</ele>
        <time>2017-04-24T17:29:11Z</time>
      </trkpt>
      <trkpt lat="49.17767" lon="-0.3603">
        <ele>26.573349</ele>
        <time>2017-04-24T17:29:16Z</time>
      </trkpt>
      <trkpt lat="49.17759" lon="-0.3602">
        <ele>26.441235</ele>
        <time>2017-04-24T17:29:20Z</time>
      </trkpt>
      <trkpt lat="49.17752" lon="-0.36008">
        <ele>26.676397</ele>
        <time>2017-04-24T17:29:23Z</time>
      </trkpt>
      <trkpt lat="49.17744" lon="-0.35997">
        <ele>26.681683</ele>
        <time>2017-04-24T17:29:26Z</time>
      </trkpt>
      <trkpt lat="49.17737" lon="-0.35986">
        <ele>26.531073</ele>
        <time>2017-04-24T17:29:30Z</time>
      </trkpt>
      <trkpt lat="49.17731" lon="-0.35975">
        <ele>26.36725</ele>
        <time>2017-04-24T17:29:34Z</time>
      </trkpt>
      <trkpt lat="49.17725" lon="-0.35964">
        <ele>26.594486</ele>
        <time>2017-04-24T17:29:38Z</time>
      </trkpt>
      <trkpt lat="49.17718" lon="-0.35953">
        <ele>27.157291</ele>
        <time>2017-04-24T17:29:42Z</time>
      </trkpt>
      <trkpt lat="49.17711" lon="-0.35943">
        <ele>27.329039</ele>
        <time>2017-04-24T17:29:46Z</time>
      </trkpt>
      <trkpt lat="49.17704" lon="-0.35932">
        <ele>26.953836</ele>
        <time>2017-04-24T17:29:50Z</time>
      </trkpt>
      <trkpt lat="49.17696" lon="-0.35922">
        <ele>26.94591</ele>
        <time>2017-04-24T17:29:55Z</time>
      </trkpt>
      <trkpt lat="49.1769" lon="-0.3591">
        <ele>26.990828</ele>
        <time>2017-04-24T17:29:59Z</time>
      </trkpt>
      <trkpt lat="49.17683" lon="-0.35897">
        <ele>27.162575</ele>
        <time>2017-04-24T17:30:04Z</time>
      </trkpt>
      <trkpt lat="49.17675" lon="-0.35886">
        <ele>27.178429</ele>
        <time>2017-04-24T17:30:08Z</time>
      </trkpt>
      <trkpt lat="49.17669" lon="-0.35876">
        <ele>26.977617</ele>
        <time>2017-04-24T17:30:12Z</time>
      </trkpt>
      <trkpt lat="49.17661" lon="-0.35866">
        <ele>27.286762</ele>
        <time>2017-04-24T17:30:17Z</time>
      </trkpt>
      <trkpt lat="49.17653" lon="-0.35854">
        <ele>27.128225</ele>
        <time>2017-04-24T17:30:23Z</time>
      </trkpt>
      <trkpt lat="49.17646" lon="-0.35844">
        <ele>27.175787</ele>
        <time>2017-04-24T17:30:27Z</time>
      </trkpt>
      <trkpt lat="49.1764" lon="-0.35834">
        <ele>27.387169</ele>
        <time>2017-04-24T17:30:31Z</time>
      </trkpt>
      <trkpt lat="49.17634" lon="-0.35822">
        <ele>27.339607</ele>
        <time>2017-04-24T17:30:35Z</time>
      </trkpt>
      <trkpt lat="49.17628" lon="-0.35812">
        <ele>28.45729</ele>
        <time>2017-04-24T17:30:39Z</time>
      </trkpt>
      <trkpt lat="49.17626" lon="-0.35811">
        <ele>28.4705</ele>
        <time>2017-04-24T17:30:40Z</time>
      </trkpt>
      <trkpt lat="49.17625" lon="-0.3581">
        <ele>28.52599</ele>
        <time>2017-04-24T17:30:41Z</time>
      </trkpt>
      <trkpt lat="49.17622" lon="-0.35808">
        <ele>27.984324</ele>
        <time>2017-04-24T17:30:42Z</time>
      </trkpt>
      <trkpt lat="49.17614" lon="-0.35816">
        <ele>27.973753</ele>
        <time>2017-04-24T17:30:47Z</time>
      </trkpt>
      <trkpt lat="49.17605" lon="-0.35823">
        <ele>28.127007</ele>
        <time>2017-04-24T17:30:51Z</time>
      </trkpt>
      <trkpt lat="49.17598" lon="-0.35834">
        <ele>27.709526</ele>
        <time>2017-04-24T17:30:55Z</time>
      </trkpt>
      <trkpt lat="49.17591" lon="-0.35845">
        <ele>27.685745</ele>
        <time>2017-04-24T17:31:00Z</time>
      </trkpt>
      <trkpt lat="49.17585" lon="-0.35857">
        <ele>27.730665</ele>
        <time>2017-04-24T17:31:05Z</time>
      </trkpt>
      <trkpt lat="49.17578" lon="-0.35868">
        <ele>27.432087</ele>
        <time>2017-04-24T17:31:09Z</time>
      </trkpt>
      <trkpt lat="49.17571" lon="-0.35879">
        <ele>27.545706</ele>
        <time>2017-04-24T17:31:14Z</time>
      </trkpt>
      <trkpt lat="49.17563" lon="-0.35891">
        <ele>27.231276</ele>
        <time>2017-04-24T17:31:19Z</time>
      </trkpt>
      <trkpt lat="49.17556" lon="-0.35901">
        <ele>28.045095</ele>
        <time>2017-04-24T17:31:24Z</time>
      </trkpt>
      <trkpt lat="49.17548" lon="-0.35912">
        <ele>27.883917</ele>
        <time>2017-04-24T17:31:29Z</time>
      </trkpt>
      <trkpt lat="49.17541" lon="-0.35921">
        <ele>27.976397</ele>
        <time>2017-04-24T17:31:32Z</time>
      </trkpt>
      <trkpt lat="49.17534" lon="-0.3593">
        <ele>27.897127</ele>
        <time>2017-04-24T17:31:36Z</time>
      </trkpt>
      <trkpt lat="49.17527" lon="-0.35941">
        <ele>27.926193</ele>
        <time>2017-04-24T17:31:41Z</time>
      </trkpt>
      <trkpt lat="49.17521" lon="-0.35953">
        <ele>28.055664</ele>
        <time>2017-04-24T17:31:45Z</time>
      </trkpt>
      <trkpt lat="49.17516" lon="-0.35965">
        <ele>28.304039</ele>
        <time>2017-04-24T17:31:49Z</time>
      </trkpt>
      <trkpt lat="49.17508" lon="-0.35976">
        <ele>28.111153</ele>
        <time>2017-04-24T17:31:55Z</time>
      </trkpt>
      <trkpt lat="49.175" lon="-0.35987">
        <ele>27.926193</ele>
        <time>2017-04-24T17:32:00Z</time>
      </trkpt>
      <trkpt lat="49.17494" lon="-0.35998">
        <ele>28.008102</ele>
        <time>2017-04-24T17:32:04Z</time>
      </trkpt>
      <trkpt lat="49.17487" lon="-0.36008">
        <ele>28.045095</ele>
        <time>2017-04-24T17:32:08Z</time>
      </trkpt>
      <trkpt lat="49.1748" lon="-0.36018">
        <ele>27.865421</ele>
        <time>2017-04-24T17:32:12Z</time>
      </trkpt>
      <trkpt lat="49.17472" lon="-0.3603">
        <ele>28.082087</ele>
        <time>2017-04-24T17:32:16Z</time>
      </trkpt>
      <trkpt lat="49.17465" lon="-0.3604">
        <ele>27.498144</ele>
        <time>2017-04-24T17:32:21Z</time>
      </trkpt>
      <trkpt lat="49.17458" lon="-0.36051">
        <ele>27.262981</ele>
        <time>2017-04-24T17:32:25Z</time>
      </trkpt>
      <trkpt lat="49.17452" lon="-0.36061">
        <ele>27.228632</ele>
        <time>2017-04-24T17:32:30Z</time>
      </trkpt>
      <trkpt lat="49.17445" lon="-0.36072">
        <ele>27.199568</ele>
        <time>2017-04-24T17:32:35Z</time>
      </trkpt>
      <trkpt lat="49.17438" lon="-0.36086">
        <ele>27.101803</ele>
        <time>2017-04-24T17:32:41Z</time>
      </trkpt>
      <trkpt lat="49.17431" lon="-0.36097">
        <ele>27.564201</ele>
        <time>2017-04-24T17:32:47Z</time>
      </trkpt>
      <trkpt lat="49.17424" lon="-0.36107">
        <ele>27.606478</ele>
        <time>2017-04-24T17:32:51Z</time>
      </trkpt>
      <trkpt lat="49.17418" lon="-0.36117">
        <ele>27.38981</ele>
        <time>2017-04-24T17:32:55Z</time>
      </trkpt>
      <trkpt lat="49.17411" lon="-0.36128">
        <ele>27.537779</ele>
        <time>2017-04-24T17:33:00Z</time>
      </trkpt>
      <trkpt lat="49.17406" lon="-0.36141">
        <ele>27.685745</ele>
        <time>2017-04-24T17:33:05Z</time>
      </trkpt>
      <trkpt lat="49.174" lon="-0.36152">
        <ele>27.59591</ele>
        <time>2017-04-24T17:33:09Z</time>
      </trkpt>
      <trkpt lat="49.17393" lon="-0.36168">
        <ele>29.067656</ele>
        <time>2017-04-24T17:33:13Z</time>
      </trkpt>
      <trkpt lat="49.17392" lon="-0.36168">
        <ele>28.800785</ele>
        <time>2017-04-24T17:33:14Z</time>
      </trkpt>
      <trkpt lat="49.17385" lon="-0.36175">
        <ele>28.581476</ele>
        <time>2017-04-24T17:33:19Z</time>
      </trkpt>
      <trkpt lat="49.17378" lon="-0.36187">
        <ele>28.298754</ele>
        <time>2017-04-24T17:33:23Z</time>
      </trkpt>
      <trkpt lat="49.17373" lon="-0.36199">
        <ele>27.463795</ele>
        <time>2017-04-24T17:33:29Z</time>
      </trkpt>
      <trkpt lat="49.17367" lon="-0.36213">
        <ele>27.093876</ele>
        <time>2017-04-24T17:33:33Z</time>
      </trkpt>
      <trkpt lat="49.17359" lon="-0.36223">
        <ele>27.207495</ele>
        <time>2017-04-24T17:33:38Z</time>
      </trkpt>
      <trkpt lat="49.17351" lon="-0.36235">
        <ele>27.34225</ele>
        <time>2017-04-24T17:33:43Z</time>
      </trkpt>
      <trkpt lat="49.17345" lon="-0.36245">
        <ele>27.334324</ele>
        <time>2017-04-24T17:33:49Z</time>
      </trkpt>
      <trkpt lat="49.17338" lon="-0.36255">
        <ele>27.656681</ele>
        <time>2017-04-24T17:33:53Z</time>
      </trkpt>
      <trkpt lat="49.17331" lon="-0.36267">
        <ele>27.57477</ele>
        <time>2017-04-24T17:33:57Z</time>
      </trkpt>
      <trkpt lat="49.17323" lon="-0.36275">
        <ele>27.495502</ele>
        <time>2017-04-24T17:34:00Z</time>
      </trkpt>
      <trkpt lat="49.17316" lon="-0.36288">
        <ele>27.48229</ele>
        <time>2017-04-24T17:34:04Z</time>
      </trkpt>
      <trkpt lat="49.17308" lon="-0.36296">
        <ele>27.146723</ele>
        <time>2017-04-24T17:34:08Z</time>
      </trkpt>
      <trkpt lat="49.17302" lon="-0.36306">
        <ele>27.03839</ele>
        <time>2017-04-24T17:34:13Z</time>
      </trkpt>
      <trkpt lat="49.17295" lon="-0.36317">
        <ele>27.506071</ele>
        <time>2017-04-24T17:34:19Z</time>
      </trkpt>
      <trkpt lat="49.17286" lon="-0.36325">
        <ele>27.363388</ele>
        <time>2017-04-24T17:34:24Z</time>
      </trkpt>
      <trkpt lat="49.17278" lon="-0.36335">
        <ele>27.371315</ele>
        <time>2017-04-24T17:34:29Z</time>
      </trkpt>
      <trkpt lat="49.17271" lon="-0.36346">
        <ele>27.638186</ele>
        <time>2017-04-24T17:34:33Z</time>
      </trkpt>
      <trkpt lat="49.17263" lon="-0.36358">
        <ele>27.543064</ele>
        <time>2017-04-24T17:34:38Z</time>
      </trkpt>
      <trkpt lat="49.17255" lon="-0.36369">
        <ele>27.524567</ele>
        <time>2017-04-24T17:34:43Z</time>
      </trkpt>
      <trkpt lat="49.17247" lon="-0.36381">
        <ele>27.585339</ele>
        <time>2017-04-24T17:34:47Z</time>
      </trkpt>
      <trkpt lat="49.17239" lon="-0.36393">
        <ele>27.770298</ele>
        <time>2017-04-24T17:34:51Z</time>
      </trkpt>
      <trkpt lat="49.17231" lon="-0.36408">
        <ele>27.891844</ele>
        <time>2017-04-24T17:34:56Z</time>
      </trkpt>
      <trkpt lat="49.17225" lon="-0.36419">
        <ele>27.965828</ele>
        <time>2017-04-24T17:35:00Z</time>
      </trkpt>
      <trkpt lat="49.17217" lon="-0.36431">
        <ele>27.957901</ele>
        <time>2017-04-24T17:35:05Z</time>
      </trkpt>
      <trkpt lat="49.17213" lon="-0.36442">
        <ele>28.03981</ele>
        <time>2017-04-24T17:35:09Z</time>
      </trkpt>
      <trkpt lat="49.17207" lon="-0.36454">
        <ele>28.187778</ele>
        <time>2017-04-24T17:35:16Z</time>
      </trkpt>
      <trkpt lat="49.17198" lon="-0.36462">
        <ele>27.54042</ele>
        <time>2017-04-24T17:35:21Z</time>
      </trkpt>
      <trkpt lat="49.17192" lon="-0.36475">
        <ele>27.640827</ele>
        <time>2017-04-24T17:35:25Z</time>
      </trkpt>
      <trkpt lat="49.17182" lon="-0.36493">
        <ele>27.630259</ele>
        <time>2017-04-24T17:35:30Z</time>
      </trkpt>
      <trkpt lat="49.17176" lon="-0.36505">
        <ele>27.912981</ele>
        <time>2017-04-24T17:35:34Z</time>
      </trkpt>
      <trkpt lat="49.17175" lon="-0.36519">
        <ele>27.521925</ele>
        <time>2017-04-24T17:35:37Z</time>
      </trkpt>
      <trkpt lat="49.17174" lon="-0.36535">
        <ele>27.02782</ele>
        <time>2017-04-24T17:35:41Z</time>
      </trkpt>
      <trkpt lat="49.17173" lon="-0.36552">
        <ele>27.535137</ele>
        <time>2017-04-24T17:35:46Z</time>
      </trkpt>
      <trkpt lat="49.17172" lon="-0.36573">
        <ele>27.6329</ele>
        <time>2017-04-24T17:35:51Z</time>
      </trkpt>
      <trkpt lat="49.1717" lon="-0.36588">
        <ele>27.558916</ele>
        <time>2017-04-24T17:35:57Z</time>
      </trkpt>
      <trkpt lat="49.17168" lon="-0.36603">
        <ele>27.714811</ele>
        <time>2017-04-24T17:36:02Z</time>
      </trkpt>
      <trkpt lat="49.17167" lon="-0.36618">
        <ele>27.706884</ele>
        <time>2017-04-24T17:36:06Z</time>
      </trkpt>
      <trkpt lat="49.17165" lon="-0.36633">
        <ele>27.42416</ele>
        <time>2017-04-24T17:36:10Z</time>
      </trkpt>
      <trkpt lat="49.17165" lon="-0.36647">
        <ele>27.487576</ele>
        <time>2017-04-24T17:36:14Z</time>
      </trkpt>
      <trkpt lat="49.17162" lon="-0.36663">
        <ele>27.461153</ele>
        <time>2017-04-24T17:36:19Z</time>
      </trkpt>
      <trkpt lat="49.17157" lon="-0.36681">
        <ele>27.413591</ele>
        <time>2017-04-24T17:36:25Z</time>
      </trkpt>
      <trkpt lat="49.17152" lon="-0.36693">
        <ele>27.442657</ele>
        <time>2017-04-24T17:36:30Z</time>
      </trkpt>
      <trkpt lat="49.17146" lon="-0.36705">
        <ele>27.44794</ele>
        <time>2017-04-24T17:36:35Z</time>
      </trkpt>
      <trkpt lat="49.17141" lon="-0.36718">
        <ele>27.751802</ele>
        <time>2017-04-24T17:36:40Z</time>
      </trkpt>
      <trkpt lat="49.17135" lon="-0.36735">
        <ele>27.765015</ele>
        <time>2017-04-24T17:36:46Z</time>
      </trkpt>
      <trkpt lat="49.17129" lon="-0.36747">
        <ele>27.722738</ele>
        <time>2017-04-24T17:36:51Z</time>
      </trkpt>
      <trkpt lat="49.17123" lon="-0.36759">
        <ele>28.082087</ele>
        <time>2017-04-24T17:36:56Z</time>
      </trkpt>
      <trkpt lat="49.17118" lon="-0.36772">
        <ele>27.704243</ele>
        <time>2017-04-24T17:37:01Z</time>
      </trkpt>
      <trkpt lat="49.17112" lon="-0.36785">
        <ele>27.881275</ele>
        <time>2017-04-24T17:37:05Z</time>
      </trkpt>
      <trkpt lat="49.17107" lon="-0.36799">
        <ele>28.079445</ele>
        <time>2017-04-24T17:37:09Z</time>
      </trkpt>
      <trkpt lat="49.17102" lon="-0.36812">
        <ele>28.034527</ele>
        <time>2017-04-24T17:37:13Z</time>
      </trkpt>
      <trkpt lat="49.17097" lon="-0.36823">
        <ele>27.918266</ele>
        <time>2017-04-24T17:37:17Z</time>
      </trkpt>
      <trkpt lat="49.17091" lon="-0.36834">
        <ele>27.902412</ele>
        <time>2017-04-24T17:37:23Z</time>
      </trkpt>
      <trkpt lat="49.17087" lon="-0.36847">
        <ele>27.735949</ele>
        <time>2017-04-24T17:37:27Z</time>
      </trkpt>
      <trkpt lat="49.17083" lon="-0.36861">
        <ele>27.894485</ele>
        <time>2017-04-24T17:37:31Z</time>
      </trkpt>
      <trkpt lat="49.17078" lon="-0.36874">
        <ele>27.957901</ele>
        <time>2017-04-24T17:37:36Z</time>
      </trkpt>
      <trkpt lat="49.17075" lon="-0.36888">
        <ele>27.69103</ele>
        <time>2017-04-24T17:37:40Z</time>
      </trkpt>
      <trkpt lat="49.17071" lon="-0.36904">
        <ele>28.076803</ele>
        <time>2017-04-24T17:37:45Z</time>
      </trkpt>
      <trkpt lat="49.17068" lon="-0.36918">
        <ele>28.298754</ele>
        <time>2017-04-24T17:37:49Z</time>
      </trkpt>
      <trkpt lat="49.17064" lon="-0.36933">
        <ele>28.267046</ele>
        <time>2017-04-24T17:37:54Z</time>
      </trkpt>
      <trkpt lat="49.1706" lon="-0.36949">
        <ele>28.62111</ele>
        <time>2017-04-24T17:37:59Z</time>
      </trkpt>
      <trkpt lat="49.17058" lon="-0.36963">
        <ele>28.961964</ele>
        <time>2017-04-24T17:38:04Z</time>
      </trkpt>
      <trkpt lat="49.17056" lon="-0.36977">
        <ele>29.033306</ele>
        <time>2017-04-24T17:38:08Z</time>
      </trkpt>
      <trkpt lat="49.17055" lon="-0.36979">
        <ele>28.880054</ele>
        <time>2017-04-24T17:38:09Z</time>
      </trkpt>
      <trkpt lat="49.17054" lon="-0.36994">
        <ele>29.403225</ele>
        <time>2017-04-24T17:38:15Z</time>
      </trkpt>
      <trkpt lat="49.17054" lon="-0.36997">
        <ele>29.738792</ele>
        <time>2017-04-24T17:38:16Z</time>
      </trkpt>
      <trkpt lat="49.17053" lon="-0.36999">
        <ele>29.419077</ele>
        <time>2017-04-24T17:38:17Z</time>
      </trkpt>
      <trkpt lat="49.1705" lon="-0.37014">
        <ele>29.625175</ele>
        <time>2017-04-24T17:38:22Z</time>
      </trkpt>
      <trkpt lat="49.17047" lon="-0.3703">
        <ele>29.807491</ele>
        <time>2017-04-24T17:38:27Z</time>
      </trkpt>
      <trkpt lat="49.17046" lon="-0.37034">
        <ele>29.693874</ele>
        <time>2017-04-24T17:38:28Z</time>
      </trkpt>
      <trkpt lat="49.17041" lon="-0.37048">
        <ele>29.39794</ele>
        <time>2017-04-24T17:38:32Z</time>
      </trkpt>
      <trkpt lat="49.17037" lon="-0.37064">
        <ele>28.750582</ele>
        <time>2017-04-24T17:38:36Z</time>
      </trkpt>
      <trkpt lat="49.17034" lon="-0.37079">
        <ele>28.124363</ele>
        <time>2017-04-24T17:38:40Z</time>
      </trkpt>
      <trkpt lat="49.17033" lon="-0.37092">
        <ele>28.290827</ele>
        <time>2017-04-24T17:38:44Z</time>
      </trkpt>
      <trkpt lat="49.17032" lon="-0.37108">
        <ele>26.885138</ele>
        <time>2017-04-24T17:38:48Z</time>
      </trkpt>
      <trkpt lat="49.17031" lon="-0.37124">
        <ele>26.85343</ele>
        <time>2017-04-24T17:38:52Z</time>
      </trkpt>
      <trkpt lat="49.17031" lon="-0.37141">
        <ele>26.990828</ele>
        <time>2017-04-24T17:38:56Z</time>
      </trkpt>
      <trkpt lat="49.17031" lon="-0.37156">
        <ele>26.900991</ele>
        <time>2017-04-24T17:39:01Z</time>
      </trkpt>
      <trkpt lat="49.17031" lon="-0.3717">
        <ele>26.73717</ele>
        <time>2017-04-24T17:39:05Z</time>
      </trkpt>
      <trkpt lat="49.17032" lon="-0.37186">
        <ele>26.346113</ele>
        <time>2017-04-24T17:39:09Z</time>
      </trkpt>
      <trkpt lat="49.17031" lon="-0.372">
        <ele>26.697536</ele>
        <time>2017-04-24T17:39:13Z</time>
      </trkpt>
      <trkpt lat="49.17032" lon="-0.37216">
        <ele>26.742455</ele>
        <time>2017-04-24T17:39:18Z</time>
      </trkpt>
      <trkpt lat="49.17034" lon="-0.37232">
        <ele>25.883715</ele>
        <time>2017-04-24T17:39:24Z</time>
      </trkpt>
      <trkpt lat="49.17039" lon="-0.37247">
        <ele>26.277414</ele>
        <time>2017-04-24T17:39:30Z</time>
      </trkpt>
      <trkpt lat="49.17041" lon="-0.37261">
        <ele>26.285341</ele>
        <time>2017-04-24T17:39:34Z</time>
      </trkpt>
      <trkpt lat="49.17044" lon="-0.37277">
        <ele>26.430666</ele>
        <time>2017-04-24T17:39:38Z</time>
      </trkpt>
      <trkpt lat="49.17047" lon="-0.37291">
        <ele>26.58656</ele>
        <time>2017-04-24T17:39:43Z</time>
      </trkpt>
      <trkpt lat="49.17053" lon="-0.37305">
        <ele>26.620909</ele>
        <time>2017-04-24T17:39:48Z</time>
      </trkpt>
      <trkpt lat="49.17058" lon="-0.37318">
        <ele>26.451803</ele>
        <time>2017-04-24T17:39:53Z</time>
      </trkpt>
      <trkpt lat="49.17064" lon="-0.37329">
        <ele>26.59713</ele>
        <time>2017-04-24T17:39:57Z</time>
      </trkpt>
      <trkpt lat="49.1707" lon="-0.37341">
        <ele>27.130869</ele>
        <time>2017-04-24T17:40:02Z</time>
      </trkpt>
      <trkpt lat="49.17078" lon="-0.37351">
        <ele>26.813795</ele>
        <time>2017-04-24T17:40:07Z</time>
      </trkpt>
      <trkpt lat="49.17084" lon="-0.37363">
        <ele>26.96969</ele>
        <time>2017-04-24T17:40:11Z</time>
      </trkpt>
      <trkpt lat="49.17092" lon="-0.37373">
        <ele>26.700178</ele>
        <time>2017-04-24T17:40:16Z</time>
      </trkpt>
      <trkpt lat="49.17102" lon="-0.37382">
        <ele>27.02782</ele>
        <time>2017-04-24T17:40:21Z</time>
      </trkpt>
      <trkpt lat="49.17112" lon="-0.37387">
        <ele>26.792658</ele>
        <time>2017-04-24T17:40:26Z</time>
      </trkpt>
      <trkpt lat="49.17122" lon="-0.37391">
        <ele>26.842861</ele>
        <time>2017-04-24T17:40:31Z</time>
      </trkpt>
      <trkpt lat="49.17132" lon="-0.37394">
        <ele>26.81908</ele>
        <time>2017-04-24T17:40:36Z</time>
      </trkpt>
      <trkpt lat="49.17142" lon="-0.37394">
        <ele>26.549568</ele>
        <time>2017-04-24T17:40:41Z</time>
      </trkpt>
      <trkpt lat="49.17152" lon="-0.37392">
        <ele>26.636763</ele>
        <time>2017-04-24T17:40:45Z</time>
      </trkpt>
      <trkpt lat="49.17162" lon="-0.37392">
        <ele>26.874567</ele>
        <time>2017-04-24T17:40:49Z</time>
      </trkpt>
      <trkpt lat="49.17172" lon="-0.37391">
        <ele>26.813795</ele>
        <time>2017-04-24T17:40:55Z</time>
      </trkpt>
      <trkpt lat="49.17183" lon="-0.37386">
        <ele>26.33026</ele>
        <time>2017-04-24T17:41:01Z</time>
      </trkpt>
      <trkpt lat="49.17191" lon="-0.37383">
        <ele>26.42538</ele>
        <time>2017-04-24T17:41:05Z</time>
      </trkpt>
      <trkpt lat="49.17201" lon="-0.3738">
        <ele>26.642048</ele>
        <time>2017-04-24T17:41:09Z</time>
      </trkpt>
      <trkpt lat="49.1721" lon="-0.37375">
        <ele>26.496723</ele>
        <time>2017-04-24T17:41:14Z</time>
      </trkpt>
      <trkpt lat="49.1722" lon="-0.37369">
        <ele>26.092455</ele>
        <time>2017-04-24T17:41:18Z</time>
      </trkpt>
      <trkpt lat="49.17231" lon="-0.37367">
        <ele>26.515219</ele>
        <time>2017-04-24T17:41:22Z</time>
      </trkpt>
      <trkpt lat="49.17239" lon="-0.37362">
        <ele>26.578632</ele>
        <time>2017-04-24T17:41:26Z</time>
      </trkpt>
      <trkpt lat="49.17248" lon="-0.37356">
        <ele>26.187576</ele>
        <time>2017-04-24T17:41:31Z</time>
      </trkpt>
      <trkpt lat="49.17257" lon="-0.37349">
        <ele>26.309122</ele>
        <time>2017-04-24T17:41:36Z</time>
      </trkpt>
      <trkpt lat="49.17267" lon="-0.37346">
        <ele>26.988186</ele>
        <time>2017-04-24T17:41:40Z</time>
      </trkpt>
      <trkpt lat="49.17276" lon="-0.37343">
        <ele>27.19164</ele>
        <time>2017-04-24T17:41:44Z</time>
      </trkpt>
      <trkpt lat="49.17284" lon="-0.37339">
        <ele>27.130869</ele>
        <time>2017-04-24T17:41:48Z</time>
      </trkpt>
      <trkpt lat="49.17294" lon="-0.37333">
        <ele>27.233917</ele>
        <time>2017-04-24T17:41:53Z</time>
      </trkpt>
      <trkpt lat="49.17304" lon="-0.37327">
        <ele>27.080666</ele>
        <time>2017-04-24T17:41:57Z</time>
      </trkpt>
      <trkpt lat="49.17314" lon="-0.3732">
        <ele>27.270908</ele>
        <time>2017-04-24T17:42:01Z</time>
      </trkpt>
      <trkpt lat="49.17324" lon="-0.37313">
        <ele>27.152006</ele>
        <time>2017-04-24T17:42:05Z</time>
      </trkpt>
      <trkpt lat="49.17333" lon="-0.37306">
        <ele>27.490217</ele>
        <time>2017-04-24T17:42:09Z</time>
      </trkpt>
      <trkpt lat="49.17341" lon="-0.37299">
        <ele>26.998755</ele>
        <time>2017-04-24T17:42:12Z</time>
      </trkpt>
      <trkpt lat="49.1735" lon="-0.37295">
        <ele>27.159933</ele>
        <time>2017-04-24T17:42:15Z</time>
      </trkpt>
      <trkpt lat="49.17358" lon="-0.37287">
        <ele>27.255054</ele>
        <time>2017-04-24T17:42:18Z</time>
      </trkpt>
      <trkpt lat="49.17369" lon="-0.37275">
        <ele>27.643469</ele>
        <time>2017-04-24T17:42:23Z</time>
      </trkpt>
      <trkpt lat="49.17378" lon="-0.37266">
        <ele>27.070097</ele>
        <time>2017-04-24T17:42:27Z</time>
      </trkpt>
      <trkpt lat="49.17386" lon="-0.37255">
        <ele>27.270908</ele>
        <time>2017-04-24T17:42:31Z</time>
      </trkpt>
      <trkpt lat="49.17394" lon="-0.37245">
        <ele>27.29469</ele>
        <time>2017-04-24T17:42:34Z</time>
      </trkpt>
      <trkpt lat="49.17402" lon="-0.37234">
        <ele>26.496723</ele>
        <time>2017-04-24T17:42:38Z</time>
      </trkpt>
      <trkpt lat="49.17409" lon="-0.37225">
        <ele>26.369894</ele>
        <time>2017-04-24T17:42:41Z</time>
      </trkpt>
      <trkpt lat="49.17415" lon="-0.37215">
        <ele>26.240421</ele>
        <time>2017-04-24T17:42:44Z</time>
      </trkpt>
      <trkpt lat="49.17421" lon="-0.37203">
        <ele>26.41217</ele>
        <time>2017-04-24T17:42:47Z</time>
      </trkpt>
      <trkpt lat="49.17427" lon="-0.37188">
        <ele>26.554853</ele>
        <time>2017-04-24T17:42:50Z</time>
      </trkpt>
      <trkpt lat="49.17432" lon="-0.37175">
        <ele>26.335545</ele>
        <time>2017-04-24T17:42:54Z</time>
      </trkpt>
      <trkpt lat="49.17439" lon="-0.37159">
        <ele>26.531073</ele>
        <time>2017-04-24T17:42:59Z</time>
      </trkpt>
      <trkpt lat="49.17449" lon="-0.37151">
        <ele>26.499365</ele>
        <time>2017-04-24T17:43:02Z</time>
      </trkpt>
      <trkpt lat="49.17456" lon="-0.37141">
        <ele>26.142658</ele>
        <time>2017-04-24T17:43:05Z</time>
      </trkpt>
      <trkpt lat="49.17462" lon="-0.37129">
        <ele>25.997334</ele>
        <time>2017-04-24T17:43:09Z</time>
      </trkpt>
      <trkpt lat="49.17471" lon="-0.3712">
        <ele>26.129446</ele>
        <time>2017-04-24T17:43:13Z</time>
      </trkpt>
      <trkpt lat="49.17479" lon="-0.37109">
        <ele>26.293268</ele>
        <time>2017-04-24T17:43:17Z</time>
      </trkpt>
      <trkpt lat="49.17486" lon="-0.37096">
        <ele>26.676397</ele>
        <time>2017-04-24T17:43:21Z</time>
      </trkpt>
      <trkpt lat="49.17492" lon="-0.37083">
        <ele>26.502007</ele>
        <time>2017-04-24T17:43:25Z</time>
      </trkpt>
      <trkpt lat="49.17498" lon="-0.37071">
        <ele>26.768877</ele>
        <time>2017-04-24T17:43:29Z</time>
      </trkpt>
      <trkpt lat="49.17505" lon="-0.37057">
        <ele>26.829649</ele>
        <time>2017-04-24T17:43:33Z</time>
      </trkpt>
      <trkpt lat="49.1751" lon="-0.37043">
        <ele>26.763592</ele>
        <time>2017-04-24T17:43:37Z</time>
      </trkpt>
      <trkpt lat="49.17517" lon="-0.37029">
        <ele>26.723959</ele>
        <time>2017-04-24T17:43:41Z</time>
      </trkpt>
      <trkpt lat="49.17524" lon="-0.37014">
        <ele>26.565422</ele>
        <time>2017-04-24T17:43:45Z</time>
      </trkpt>
      <trkpt lat="49.17532" lon="-0.37001">
        <ele>26.866642</ele>
        <time>2017-04-24T17:43:49Z</time>
      </trkpt>
      <trkpt lat="49.17539" lon="-0.36992">
        <ele>26.866642</ele>
        <time>2017-04-24T17:43:52Z</time>
      </trkpt>
      <trkpt lat="49.17546" lon="-0.36981">
        <ele>26.821722</ele>
        <time>2017-04-24T17:43:56Z</time>
      </trkpt>
      <trkpt lat="49.17555" lon="-0.36967">
        <ele>26.813795</ele>
        <time>2017-04-24T17:44:00Z</time>
      </trkpt>
      <trkpt lat="49.17561" lon="-0.36955">
        <ele>26.692251</ele>
        <time>2017-04-24T17:44:03Z</time>
      </trkpt>
      <trkpt lat="49.17566" lon="-0.36941">
        <ele>26.95912</ele>
        <time>2017-04-24T17:44:07Z</time>
      </trkpt>
      <trkpt lat="49.17572" lon="-0.3693">
        <ele>27.146723</ele>
        <time>2017-04-24T17:44:12Z</time>
      </trkpt>
      <trkpt lat="49.17578" lon="-0.3692">
        <ele>27.088593</ele>
        <time>2017-04-24T17:44:15Z</time>
      </trkpt>
      <trkpt lat="49.17585" lon="-0.36907">
        <ele>26.377821</ele>
        <time>2017-04-24T17:44:19Z</time>
      </trkpt>
      <trkpt lat="49.17592" lon="-0.36899">
        <ele>26.243065</ele>
        <time>2017-04-24T17:44:22Z</time>
      </trkpt>
      <trkpt lat="49.17602" lon="-0.36887">
        <ele>26.391031</ele>
        <time>2017-04-24T17:44:26Z</time>
      </trkpt>
      <trkpt lat="49.17609" lon="-0.36877">
        <ele>26.568064</ele>
        <time>2017-04-24T17:44:29Z</time>
      </trkpt>
      <trkpt lat="49.17616" lon="-0.36865">
        <ele>26.536356</ele>
        <time>2017-04-24T17:44:33Z</time>
      </trkpt>
      <trkpt lat="49.17623" lon="-0.36852">
        <ele>26.536356</ele>
        <time>2017-04-24T17:44:37Z</time>
      </trkpt>
      <trkpt lat="49.1763" lon="-0.36842">
        <ele>26.565422</ele>
        <time>2017-04-24T17:44:41Z</time>
      </trkpt>
      <trkpt lat="49.17635" lon="-0.36829">
        <ele>26.776804</ele>
        <time>2017-04-24T17:44:44Z</time>
      </trkpt>
      <trkpt lat="49.1764" lon="-0.36818">
        <ele>26.58656</ele>
        <time>2017-04-24T17:44:48Z</time>
      </trkpt>
      <trkpt lat="49.17648" lon="-0.36809">
        <ele>27.223349</ele>
        <time>2017-04-24T17:44:55Z</time>
      </trkpt>
      <trkpt lat="49.17658" lon="-0.36803">
        <ele>27.537779</ele>
        <time>2017-04-24T17:45:02Z</time>
      </trkpt>
      <trkpt lat="49.17666" lon="-0.36798">
        <ele>28.021315</ele>
        <time>2017-04-24T17:45:16Z</time>
      </trkpt>
      <trkpt lat="49.17674" lon="-0.36786">
        <ele>27.957901</ele>
        <time>2017-04-24T17:45:22Z</time>
      </trkpt>
      <trkpt lat="49.17681" lon="-0.36777">
        <ele>28.042454</ele>
        <time>2017-04-24T17:45:27Z</time>
      </trkpt>
      <trkpt lat="49.17689" lon="-0.36769">
        <ele>28.187778</ele>
        <time>2017-04-24T17:45:32Z</time>
      </trkpt>
      <trkpt lat="49.17698" lon="-0.36761">
        <ele>28.304039</ele>
        <time>2017-04-24T17:45:36Z</time>
      </trkpt>
      <trkpt lat="49.17704" lon="-0.36749">
        <ele>28.230055</ele>
        <time>2017-04-24T17:45:44Z</time>
      </trkpt>
      <trkpt lat="49.17711" lon="-0.36738">
        <ele>28.290827</ele>
        <time>2017-04-24T17:45:49Z</time>
      </trkpt>
      <trkpt lat="49.17716" lon="-0.36723">
        <ele>27.984324</ele>
        <time>2017-04-24T17:45:54Z</time>
      </trkpt>
      <trkpt lat="49.1772" lon="-0.3671">
        <ele>28.285542</ele>
        <time>2017-04-24T17:45:59Z</time>
      </trkpt>
      <trkpt lat="49.17725" lon="-0.36698">
        <ele>27.508713</ele>
        <time>2017-04-24T17:46:06Z</time>
      </trkpt>
      <trkpt lat="49.1773" lon="-0.36685">
        <ele>27.463795</ele>
        <time>2017-04-24T17:46:14Z</time>
      </trkpt>
      <trkpt lat="49.17732" lon="-0.36671">
        <ele>28.010746</ele>
        <time>2017-04-24T17:46:22Z</time>
      </trkpt>
      <trkpt lat="49.17735" lon="-0.36657">
        <ele>27.772942</ele>
        <time>2017-04-24T17:46:29Z</time>
      </trkpt>
      <trkpt lat="49.17738" lon="-0.36644">
        <ele>28.079445</ele>
        <time>2017-04-24T17:46:35Z</time>
      </trkpt>
      <trkpt lat="49.17743" lon="-0.3663">
        <ele>27.738592</ele>
        <time>2017-04-24T17:46:43Z</time>
      </trkpt>
      <trkpt lat="49.17747" lon="-0.36617">
        <ele>28.269688</ele>
        <time>2017-04-24T17:46:54Z</time>
      </trkpt>
      <trkpt lat="49.1775" lon="-0.36604">
        <ele>28.428225</ele>
        <time>2017-04-24T17:47:00Z</time>
      </trkpt>
      <trkpt lat="49.17752" lon="-0.3659">
        <ele>28.586761</ele>
        <time>2017-04-24T17:47:07Z</time>
      </trkpt>
      <trkpt lat="49.17755" lon="-0.36576">
        <ele>28.570908</ele>
        <time>2017-04-24T17:47:15Z</time>
      </trkpt>
      <trkpt lat="49.17757" lon="-0.36561">
        <ele>28.581476</ele>
        <time>2017-04-24T17:47:23Z</time>
      </trkpt>
      <trkpt lat="49.17757" lon="-0.36545">
        <ele>28.478428</ele>
        <time>2017-04-24T17:47:30Z</time>
      </trkpt>
      <trkpt lat="49.17758" lon="-0.36529">
        <ele>28.203632</ele>
        <time>2017-04-24T17:47:38Z</time>
      </trkpt>
      <trkpt lat="49.17759" lon="-0.36526">
        <ele>28.49164</ele>
        <time>2017-04-24T17:47:40Z</time>
      </trkpt>
      <trkpt lat="49.1776" lon="-0.36512">
        <ele>28.795502</ele>
        <time>2017-04-24T17:47:48Z</time>
      </trkpt>
      <trkpt lat="49.17761" lon="-0.36497">
        <ele>28.523346</ele>
        <time>2017-04-24T17:47:58Z</time>
      </trkpt>
      <trkpt lat="49.17762" lon="-0.3648">
        <ele>28.325176</ele>
        <time>2017-04-24T17:48:06Z</time>
      </trkpt>
    </trkseg>
  </trk>
</gpx>